Darstellungsparameter: Aktuell verwendete Einstellungen:
Skalierung der Graphiken ... ?
xyx+y,   Skalierungsfaktor:      Skalierung: Modus: x, Faktor: 1
Darstellungszeitraum ... ?
Vom - - bis: - -   Zeitraum: 25.02.2020 - 24.03.2020
Min/Max/Avg-Anzeige ... ?
Zeige MMA aktuell
Zeige MMA Monat
Zeige MMA alles
Zeige --A aktuell
Zeige --A Monat
Zeige --A alles
Keine MMA-Anzeige
MMA:
Average (ber die Originaldaten)
MMA-Basis: 25.02.2020 - 24.03.2020
Quicknavigation für Darstellung... ?
Tage:      1T, 2T, 3T, 5T -1T -2T -3T -5T +1T +2T +3T +5T
Wochen: 1W, 2W, 3W -1W -2W -3W +1W +2W +3W
Monate: 1M, 3M, 6M -1M -3M -6M +1M +3M +6M
Jahre:    1J, 3J, 5J, 10J -1J -3J -5J -10J +1J +3J +5J +10J
Nutze für die Darstellung ... ?
Originaldaten oder ...
Mittelwerte Minima Maxima auf...
Stundenbasis Tagesbasis Wochenbasis
Monatsbasis Jahresbasis      Datenbasis: Mittelwerte auf Stundenbasis
Darstellen als:
Statistik (Auto) Statistik J:M      Darstellung:
Zur Graphik,    zurück zur Übersicht aller Sensoren.
 
Tabellarische Datenbersicht: ?
 
Sensor: Nr:Datum:Temp:Feuchte:
Aussen-T/F 1 25-02-2020 00:00:00 10.43333 C 34.6667 %
2 25-02-2020 01:00:00 10.5 C 35.0000 %
3 25-02-2020 02:00:00 10.3 C 35.0000 %
4 25-02-2020 03:00:00 9.91667 C 35.5000 %
5 25-02-2020 04:00:00 9.91667 C 35.8333 %
6 25-02-2020 05:00:00 9.75 C 35.8333 %
7 25-02-2020 06:00:00 9.48333 C 35.5000 %
8 25-02-2020 07:00:00 8.76667 C 38.0000 %
9 25-02-2020 08:00:00 8.06667 C 42.3333 %
10 25-02-2020 09:00:00 8.48333 C 37.8333 %
11 25-02-2020 10:00:00 8.83333 C 32.5000 %
12 25-02-2020 11:00:00 8.5 C 31.3333 %
13 25-02-2020 12:00:00 10.55 C 23.1667 %
14 25-02-2020 13:00:00 10.73333 C 23.8333 %
15 25-02-2020 14:00:00 10.48333 C 21.3333 %
16 25-02-2020 15:00:00 11.11667 C 21.5000 %
17 25-02-2020 16:00:00 10.73333 C 20.3333 %
18 25-02-2020 17:00:00 9.53333 C 23.6667 %
19 25-02-2020 18:00:00 8.3 C 27.8333 %
20 25-02-2020 19:00:00 6.08333 C 37.0000 %
21 25-02-2020 20:00:00 5.75 C 39.6667 %
22 25-02-2020 21:00:00 5.45 C 38.6667 %
23 25-02-2020 22:00:00 4.98333 C 34.0000 %
24 25-02-2020 23:00:00 4.91667 C 34.3333 %
25 26-02-2020 00:00:00 5.16667 C 35.1667 %
Sensor: Nr:Datum:Temp:Feuchte:
Aussen-T/F 26 26-02-2020 01:00:00 5.28333 C 35.0000 %
27 26-02-2020 02:00:00 5.11667 C 33.6667 %
28 26-02-2020 03:00:00 4.21667 C 34.0000 %
29 26-02-2020 04:00:00 3.88333 C 35.0000 %
30 26-02-2020 05:00:00 3.9 C 34.1667 %
31 26-02-2020 06:00:00 3.8 C 33.1667 %
32 26-02-2020 07:00:00 3.36667 C 34.6667 %
33 26-02-2020 08:00:00 3.5 C 34.8333 %
34 26-02-2020 09:00:00 3.16667 C 36.3333 %
35 26-02-2020 10:00:00 3.7 C 35.8333 %
36 26-02-2020 11:00:00 5.2 C 32.6667 %
37 26-02-2020 12:00:00 6.05 C 30.6667 %
38 26-02-2020 13:00:00 5.58333 C 30.5000 %
39 26-02-2020 14:00:00 5.38333 C 32.0000 %
40 26-02-2020 15:00:00 6.31667 C 30.3333 %
41 26-02-2020 16:00:00 5.55 C 30.0000 %
42 26-02-2020 17:00:00 4.83333 C 30.3333 %
43 26-02-2020 18:00:00 4.03333 C 32.0000 %
44 26-02-2020 19:00:00 3.78333 C 34.1667 %
45 26-02-2020 20:00:00 3.51667 C 35.0000 %
46 26-02-2020 21:00:00 3.43333 C 35.0000 %
47 26-02-2020 22:00:00 3.3 C 36.3333 %
48 26-02-2020 23:00:00 2.9 C 37.5000 %
49 27-02-2020 00:00:00 2.93333 C 36.8333 %
50 27-02-2020 01:00:00 2.33333 C 38.0000 %
Sensor: Nr:Datum:Temp:Feuchte:
Aussen-T/F 51 27-02-2020 02:00:00 2.78333 C 37.3333 %
52 27-02-2020 03:00:00 2.71667 C 39.5000 %
53 27-02-2020 04:00:00 2.55 C 39.6667 %
54 27-02-2020 05:00:00 2.18333 C 39.8333 %
55 27-02-2020 06:00:00 2.23333 C 38.1667 %
56 27-02-2020 07:00:00 2.41667 C 38.5000 %
57 27-02-2020 08:00:00 3.08333 C 38.5000 %
58 27-02-2020 09:00:00 4.65 C 34.8333 %
59 27-02-2020 10:00:00 5.23333 C 33.1667 %
60 27-02-2020 11:00:00 4 C 37.0000 %
61 27-02-2020 12:00:00 3.7 C 39.8333 %
62 27-02-2020 13:00:00 2.91667 C 42.0000 %
63 27-02-2020 14:00:00 2.53333 C 44.0000 %
64 27-02-2020 15:00:00 2.13333 C 44.6667 %
65 27-02-2020 16:00:00 0.71667 C 47.1667 %
66 27-02-2020 17:00:00 0 C 48.1667 %
67 27-02-2020 18:00:00 0.1 C 48.0000 %
68 27-02-2020 19:00:00 0.46667 C 48.0000 %
69 27-02-2020 20:00:00 0.63333 C 48.0000 %
70 27-02-2020 21:00:00 0.68333 C 47.3333 %
71 27-02-2020 22:00:00 0.83333 C 47.1667 %
72 27-02-2020 23:00:00 1.48333 C 44.6667 %
73 28-02-2020 00:00:00 1.68333 C 44.0000 %
74 28-02-2020 01:00:00 1.41667 C 45.5000 %
75 28-02-2020 02:00:00 1.41667 C 44.5000 %
Sensor: Nr:Datum:Temp:Feuchte:
Aussen-T/F 76 28-02-2020 03:00:00 1.15 C 43.1667 %
77 28-02-2020 04:00:00 1.3 C 42.8333 %
78 28-02-2020 05:00:00 1.05 C 43.0000 %
79 28-02-2020 06:00:00 0.7 C 43.8333 %
80 28-02-2020 07:00:00 0.5 C 43.6667 %
81 28-02-2020 08:00:00 0.56667 C 43.8333 %
82 28-02-2020 09:00:00 1.6 C 41.1667 %
83 28-02-2020 10:00:00 2.83333 C 38.3333 %
84 28-02-2020 11:00:00 4 C 36.3333 %
85 28-02-2020 12:00:00 5.18333 C 34.3333 %
86 28-02-2020 13:00:00 7.25 C 30.1667 %
87 28-02-2020 14:00:00 8.06667 C 27.3333 %
88 28-02-2020 15:00:00 8.15 C 26.1667 %
89 28-02-2020 16:00:00 6.98333 C 29.5000 %
90 28-02-2020 17:00:00 5.26667 C 35.1667 %
91 28-02-2020 18:00:00 4.8 C 35.3333 %
92 28-02-2020 19:00:00 5.01667 C 33.3333 %
93 28-02-2020 20:00:00 4.43333 C 35.5000 %
94 28-02-2020 21:00:00 3.86667 C 39.3333 %
95 28-02-2020 22:00:00 3.66667 C 41.8333 %
96 28-02-2020 23:00:00 3.68333 C 44.6667 %
97 29-02-2020 00:00:00 4.73333 C 41.3333 %
98 29-02-2020 01:00:00 4.98333 C 44.0000 %
99 29-02-2020 02:00:00 5.7 C 43.6667 %
100 29-02-2020 03:00:00 8.3 C 38.5000 %
Sensor: Nr:Datum:Temp:Feuchte:
Aussen-T/F 101 29-02-2020 04:00:00 9.21667 C 37.0000 %
102 29-02-2020 05:00:00 8.96667 C 36.6667 %
103 29-02-2020 06:00:00 8.58333 C 37.0000 %
104 29-02-2020 07:00:00 7.85 C 37.6667 %
105 29-02-2020 08:00:00 7.58333 C 38.6667 %
106 29-02-2020 09:00:00 9.33333 C 34.8333 %
107 29-02-2020 10:00:00 10.3 C 31.5000 %
108 29-02-2020 11:00:00 13.08333 C 25.8333 %
109 29-02-2020 12:00:00 15.45 C 20.0000 %
110 29-02-2020 13:00:00 15.45 C 20.0000 %
111 29-02-2020 14:00:00 13.43333 C 26.1667 %
112 29-02-2020 15:00:00 10.7 C 38.1667 %
113 29-02-2020 16:00:00 10.8 C 34.8333 %
114 29-02-2020 17:00:00 8.76667 C 34.5000 %
115 29-02-2020 18:00:00 7.58333 C 35.3333 %
116 29-02-2020 19:00:00 6.36667 C 35.0000 %
117 29-02-2020 20:00:00 6.01667 C 34.5000 %
118 29-02-2020 21:00:00 4.85 C 35.5000 %
119 29-02-2020 22:00:00 3.56667 C 39.5000 %
120 29-02-2020 23:00:00 4.91667 C 37.1667 %
121 01-03-2020 00:00:00 6.35 C 35.0000 %
122 01-03-2020 01:00:00 5.81667 C 35.3333 %
123 01-03-2020 02:00:00 5.88333 C 35.6667 %
124 01-03-2020 03:00:00 6.58333 C 35.0000 %
125 01-03-2020 04:00:00 6.91667 C 33.6667 %
Sensor: Nr:Datum:Temp:Feuchte:
Aussen-T/F 126 01-03-2020 05:00:00 6.9 C 33.5000 %
127 01-03-2020 06:00:00 6.65 C 34.1667 %
128 01-03-2020 07:00:00 5.25 C 40.0000 %
129 01-03-2020 08:00:00 4.7 C 41.3333 %
130 01-03-2020 09:00:00 4.58333 C 41.0000 %
131 01-03-2020 10:00:00 6.91667 C 36.6667 %
132 01-03-2020 11:00:00 9.31667 C 30.0000 %
133 01-03-2020 12:00:00 10.13333 C 26.6667 %
134 01-03-2020 13:00:00 10.63333 C 23.3333 %
135 01-03-2020 14:00:00 10.4 C 24.3333 %
136 01-03-2020 15:00:00 11.85 C 21.3333 %
137 01-03-2020 16:00:00 10.36667 C 27.5000 %
138 01-03-2020 17:00:00 7.5 C 41.3333 %
139 01-03-2020 18:00:00 6.66667 C 45.0000 %
140 01-03-2020 19:00:00 6.36667 C 45.0000 %
141 01-03-2020 20:00:00 5.93333 C 45.0000 %
142 01-03-2020 21:00:00 5.65 C 45.0000 %
143 01-03-2020 22:00:00 6.13333 C 45.0000 %
144 01-03-2020 23:00:00 4.26667 C 43.1667 %
145 02-03-2020 00:00:00 3.48333 C 42.8333 %
146 02-03-2020 01:00:00 3.78333 C 41.3333 %
147 02-03-2020 02:00:00 3.68333 C 41.5000 %
148 02-03-2020 03:00:00 2.91667 C 44.0000 %
149 02-03-2020 04:00:00 2.15 C 46.3333 %
150 02-03-2020 05:00:00 1.43333 C 48.0000 %
Sensor: Nr:Datum:Temp:Feuchte:
Aussen-T/F 151 02-03-2020 06:00:00 1.33333 C 48.0000 %
152 02-03-2020 07:00:00 1.98333 C 47.5000 %
153 02-03-2020 08:00:00 3.11667 C 46.1667 %
154 02-03-2020 09:00:00 5.11667 C 40.1667 %
155 02-03-2020 10:00:00 7.83333 C 34.8333 %
156 02-03-2020 11:00:00 12.13333 C 27.5000 %
157 02-03-2020 12:00:00 12.55 C 22.8333 %
158 02-03-2020 13:00:00 13.88333 C 20.6667 %
159 02-03-2020 14:00:00 11.41667 C 24.5000 %
160 02-03-2020 15:00:00 9.71667 C 29.5000 %
161 02-03-2020 16:00:00 7.36667 C 42.1667 %
162 02-03-2020 17:00:00 6.51667 C 45.0000 %
163 02-03-2020 18:00:00 5.98333 C 45.5000 %
164 02-03-2020 19:00:00 5.7 C 45.6667 %
165 02-03-2020 20:00:00 5.61667 C 45.0000 %
166 02-03-2020 21:00:00 5.4 C 45.0000 %
167 02-03-2020 22:00:00 5.45 C 45.0000 %
168 02-03-2020 23:00:00 5.28333 C 45.0000 %
169 03-03-2020 00:00:00 5.01667 C 44.5000 %
170 03-03-2020 01:00:00 4.76667 C 42.6667 %
171 03-03-2020 02:00:00 4.13333 C 41.6667 %
172 03-03-2020 03:00:00 3.41667 C 41.1667 %
173 03-03-2020 04:00:00 3.03333 C 41.8333 %
174 03-03-2020 05:00:00 2.63333 C 42.8333 %
175 03-03-2020 06:00:00 2.83333 C 42.0000 %
Sensor: Nr:Datum:Temp:Feuchte:
Aussen-T/F 176 03-03-2020 07:00:00 2.61667 C 42.8333 %
177 03-03-2020 08:00:00 3.28333 C 40.8333 %
178 03-03-2020 09:00:00 3.75 C 39.5000 %
179 03-03-2020 10:00:00 5.15 C 35.3333 %
180 03-03-2020 11:00:00 5.38333 C 35.0000 %
181 03-03-2020 12:00:00 6.55 C 33.6667 %
182 03-03-2020 13:00:00 8.46667 C 28.5000 %
183 03-03-2020 14:00:00 5.21667 C 38.0000 %
184 03-03-2020 15:00:00 7.26667 C 34.0000 %
185 03-03-2020 16:00:00 8.43333 C 28.1667 %
186 03-03-2020 17:00:00 6.28333 C 34.0000 %
187 03-03-2020 18:00:00 3.91667 C 39.8333 %
188 03-03-2020 19:00:00 3.11667 C 41.0000 %
189 03-03-2020 20:00:00 1.53333 C 46.5000 %
190 03-03-2020 21:00:00 1.85 C 46.1667 %
191 03-03-2020 22:00:00 1.36667 C 46.8333 %
192 03-03-2020 23:00:00 2.41667 C 44.6667 %
193 04-03-2020 00:00:00 2.81667 C 42.0000 %
194 04-03-2020 01:00:00 2.55 C 42.1667 %
195 04-03-2020 02:00:00 3.06667 C 41.1667 %
196 04-03-2020 03:00:00 2.91667 C 41.6667 %
197 04-03-2020 04:00:00 3.53333 C 40.5000 %
198 04-03-2020 05:00:00 3.21667 C 42.8333 %
199 04-03-2020 06:00:00 3.48333 C 42.0000 %
200 04-03-2020 07:00:00 3.85 C 40.8333 %
Sensor: Nr:Datum:Temp:Feuchte:
Aussen-T/F 201 04-03-2020 08:00:00 3.66667 C 41.1667 %
202 04-03-2020 09:00:00 4.65 C 39.1667 %
203 04-03-2020 10:00:00 6.15 C 36.3333 %
204 04-03-2020 11:00:00 8.21667 C 32.8333 %
205 04-03-2020 12:00:00 9.76667 C 29.5000 %
206 04-03-2020 13:00:00 9.78333 C 27.5000 %
207 04-03-2020 14:00:00 9.73333 C 27.0000 %
208 04-03-2020 15:00:00 9.68333 C 27.6667 %
209 04-03-2020 16:00:00 10.73333 C 25.6667 %
210 04-03-2020 17:00:00 7.8 C 30.6667 %
211 04-03-2020 18:00:00 4.58333 C 38.5000 %
212 04-03-2020 19:00:00 3.96667 C 40.1667 %
213 04-03-2020 20:00:00 3.33333 C 41.6667 %
214 04-03-2020 21:00:00 3.15 C 42.0000 %
215 04-03-2020 22:00:00 2.75 C 45.1667 %
216 04-03-2020 23:00:00 3.55 C 43.6667 %
217 05-03-2020 00:00:00 3.65 C 46.6667 %
218 05-03-2020 01:00:00 3.46667 C 47.0000 %
219 05-03-2020 02:00:00 3.75 C 44.5000 %
220 05-03-2020 03:00:00 4 C 41.8333 %
221 05-03-2020 04:00:00 3.85 C 43.3333 %
222 05-03-2020 05:00:00 3.85 C 44.0000 %
223 05-03-2020 06:00:00 4.01667 C 42.3333 %
224 05-03-2020 07:00:00 4.48333 C 41.5000 %
225 05-03-2020 08:00:00 5.01667 C 40.5000 %
Sensor: Nr:Datum:Temp:Feuchte:
Aussen-T/F 226 05-03-2020 09:00:00 6.33333 C 38.3333 %
227 05-03-2020 10:00:00 6.46667 C 38.1667 %
228 05-03-2020 11:00:00 7.38333 C 37.1667 %
229 05-03-2020 12:00:00 7.13333 C 38.1667 %
230 05-03-2020 13:00:00 6.76667 C 41.3333 %
231 05-03-2020 14:00:00 6.33333 C 43.1667 %
232 05-03-2020 15:00:00 6.41667 C 45.0000 %
233 05-03-2020 16:00:00 6.46667 C 43.6667 %
234 05-03-2020 17:00:00 5.96667 C 45.5000 %
235 05-03-2020 18:00:00 5.76667 C 46.0000 %
236 05-03-2020 19:00:00 5.61667 C 46.0000 %
237 05-03-2020 20:00:00 5.98333 C 45.0000 %
238 05-03-2020 21:00:00 6.08333 C 45.0000 %
239 05-03-2020 22:00:00 6.06667 C 45.0000 %
240 05-03-2020 23:00:00 6.11667 C 44.8333 %
241 06-03-2020 00:00:00 6.23333 C 44.0000 %
242 06-03-2020 01:00:00 6.93333 C 42.3333 %
243 06-03-2020 02:00:00 6.58333 C 40.1667 %
244 06-03-2020 03:00:00 6.03333 C 40.6667 %
245 06-03-2020 04:00:00 5.45 C 45.0000 %
246 06-03-2020 05:00:00 5.7 C 44.1667 %
247 06-03-2020 06:00:00 5.93333 C 44.6667 %
248 06-03-2020 07:00:00 5.91667 C 44.6667 %
249 06-03-2020 08:00:00 4.95 C 42.6667 %
250 06-03-2020 09:00:00 4.86667 C 42.3333 %
Sensor: Nr:Datum:Temp:Feuchte:
Aussen-T/F 251 06-03-2020 10:00:00 4.78333 C 41.1667 %
252 06-03-2020 11:00:00 5.03333 C 40.3333 %
253 06-03-2020 12:00:00 4.53333 C 41.0000 %
254 06-03-2020 13:00:00 5.03333 C 40.1667 %
255 06-03-2020 14:00:00 5 C 40.5000 %
256 06-03-2020 15:00:00 5.75 C 38.3333 %
257 06-03-2020 16:00:00 6.11667 C 37.5000 %
258 06-03-2020 17:00:00 6.76667 C 37.1667 %
259 06-03-2020 18:00:00 6.36667 C 37.1667 %
260 06-03-2020 19:00:00 6.3 C 36.8333 %
261 06-03-2020 20:00:00 5.65 C 37.3333 %
262 06-03-2020 21:00:00 5.06667 C 38.0000 %
263 06-03-2020 22:00:00 5.11667 C 38.1667 %
264 06-03-2020 23:00:00 5.23333 C 37.5000 %
265 07-03-2020 00:00:00 5.08333 C 37.0000 %
266 07-03-2020 01:00:00 5.16667 C 37.8333 %
267 07-03-2020 02:00:00 5.15 C 38.0000 %
268 07-03-2020 03:00:00 4.7 C 39.6667 %
269 07-03-2020 04:00:00 4.7 C 39.3333 %
270 07-03-2020 05:00:00 4.56667 C 39.0000 %
271 07-03-2020 06:00:00 4.55 C 39.1667 %
272 07-03-2020 07:00:00 4.21667 C 39.8333 %
273 07-03-2020 08:00:00 4.06667 C 42.5000 %
274 07-03-2020 09:00:00 5.75 C 36.5000 %
275 07-03-2020 10:00:00 6.5 C 35.3333 %
Sensor: Nr:Datum:Temp:Feuchte:
Aussen-T/F 276 07-03-2020 11:00:00 7.96667 C 30.1667 %
277 07-03-2020 12:00:00 7.81667 C 28.8333 %
278 07-03-2020 13:00:00 9.26667 C 24.8333 %
279 07-03-2020 14:00:00 10.4 C 21.0000 %
280 07-03-2020 15:00:00 11 C 20.0000 %
281 07-03-2020 16:00:00 9.75 C 20.0000 %
282 07-03-2020 17:00:00 8.31667 C 23.5000 %
283 07-03-2020 18:00:00 5.63333 C 34.0000 %
284 07-03-2020 19:00:00 4.61667 C 36.6667 %
285 07-03-2020 20:00:00 4.46667 C 38.1667 %
286 07-03-2020 21:00:00 4.76667 C 38.1667 %
287 07-03-2020 22:00:00 5.53333 C 36.1667 %
288 07-03-2020 23:00:00 6.36667 C 34.5000 %
289 08-03-2020 00:00:00 6.75 C 34.8333 %
290 08-03-2020 01:00:00 6.85 C 34.8333 %
291 08-03-2020 02:00:00 7.03333 C 35.0000 %
292 08-03-2020 03:00:00 6.68333 C 35.5000 %
293 08-03-2020 04:00:00 6.96667 C 35.0000 %
294 08-03-2020 05:00:00 6.68333 C 35.0000 %
295 08-03-2020 06:00:00 6.56667 C 35.8333 %
296 08-03-2020 07:00:00 7.83333 C 34.8333 %
297 08-03-2020 08:00:00 8.48333 C 34.1667 %
298 08-03-2020 09:00:00 9.45 C 33.0000 %
299 08-03-2020 10:00:00 10.76667 C 31.1667 %
300 08-03-2020 11:00:00 12.38333 C 26.8333 %
Sensor: Nr:Datum:Temp:Feuchte:
Aussen-T/F 301 08-03-2020 12:00:00 13.31667 C 23.5000 %
302 08-03-2020 13:00:00 12.45 C 25.0000 %
303 08-03-2020 14:00:00 12.68333 C 24.6667 %
304 08-03-2020 15:00:00 12.33333 C 25.0000 %
305 08-03-2020 16:00:00 12.23333 C 25.5000 %
306 08-03-2020 17:00:00 12.03333 C 26.6667 %
307 08-03-2020 18:00:00 10.48333 C 31.8333 %
308 08-03-2020 19:00:00 9.61667 C 35.6667 %
309 08-03-2020 20:00:00 9.23333 C 36.6667 %
310 08-03-2020 21:00:00 9.18333 C 37.0000 %
311 08-03-2020 22:00:00 9.06667 C 37.0000 %
312 08-03-2020 23:00:00 8.06667 C 39.1667 %
313 09-03-2020 00:00:00 6.88333 C 42.8333 %
314 09-03-2020 01:00:00 6.81667 C 43.0000 %
315 09-03-2020 02:00:00 6.38333 C 44.3333 %
316 09-03-2020 03:00:00 6.31667 C 43.0000 %
317 09-03-2020 04:00:00 6 C 43.8333 %
318 09-03-2020 05:00:00 5.68333 C 43.5000 %
319 09-03-2020 06:00:00 5.35 C 42.1667 %
320 09-03-2020 07:00:00 5.33333 C 42.0000 %
321 09-03-2020 08:00:00 5.98333 C 41.1667 %
322 09-03-2020 09:00:00 7.83333 C 37.1667 %
323 09-03-2020 10:00:00 8.36667 C 36.0000 %
324 09-03-2020 11:00:00 9.35 C 33.6667 %
325 09-03-2020 12:00:00 10.6 C 25.8333 %
Sensor: Nr:Datum:Temp:Feuchte:
Aussen-T/F 326 09-03-2020 13:00:00 10.38333 C 29.0000 %
327 09-03-2020 14:00:00 11.91667 C 24.3333 %
328 09-03-2020 15:00:00 13.23333 C 20.0000 %
329 09-03-2020 16:00:00 12.33333 C 20.8333 %
330 09-03-2020 17:00:00 10.23333 C 23.8333 %
331 09-03-2020 18:00:00 8.68333 C 29.5000 %
332 09-03-2020 19:00:00 7.4 C 33.3333 %
333 09-03-2020 20:00:00 6.65 C 35.6667 %
334 09-03-2020 21:00:00 5.56667 C 37.8333 %
335 09-03-2020 22:00:00 5.51667 C 38.1667 %
336 09-03-2020 23:00:00 4.83333 C 39.8333 %
337 10-03-2020 00:00:00 5.2 C 40.1667 %
338 10-03-2020 01:00:00 6.21667 C 38.0000 %
339 10-03-2020 02:00:00 6.8 C 37.0000 %
340 10-03-2020 03:00:00 6.26667 C 39.0000 %
341 10-03-2020 04:00:00 5.7 C 40.5000 %
342 10-03-2020 05:00:00 5.18333 C 41.5000 %
343 10-03-2020 06:00:00 4.98333 C 43.0000 %
344 10-03-2020 07:00:00 5.6 C 41.5000 %
345 10-03-2020 08:00:00 6.26667 C 40.8333 %
346 10-03-2020 09:00:00 6.78333 C 41.5000 %
347 10-03-2020 10:00:00 7.51667 C 41.0000 %
348 10-03-2020 11:00:00 8.46667 C 40.6667 %
349 10-03-2020 12:00:00 9.05 C 40.8333 %
350 10-03-2020 13:00:00 9.56667 C 40.8333 %
Sensor: Nr:Datum:Temp:Feuchte:
Aussen-T/F 351 10-03-2020 14:00:00 10.6 C 39.8333 %
352 10-03-2020 15:00:00 11.93333 C 37.3333 %
353 10-03-2020 16:00:00 12.58333 C 36.5000 %
354 10-03-2020 17:00:00 12.6 C 37.1667 %
355 10-03-2020 18:00:00 12.35 C 38.0000 %
356 10-03-2020 19:00:00 12.45 C 38.0000 %
357 10-03-2020 20:00:00 12.8 C 37.8333 %
358 10-03-2020 21:00:00 13.11667 C 37.1667 %
359 10-03-2020 22:00:00 12.58333 C 39.8333 %
360 10-03-2020 23:00:00 12.86667 C 38.8333 %
361 11-03-2020 00:00:00 13.61667 C 36.0000 %
362 11-03-2020 01:00:00 13.25 C 37.3333 %
363 11-03-2020 02:00:00 13.25 C 37.5000 %
364 11-03-2020 03:00:00 13.26667 C 37.1667 %
365 11-03-2020 04:00:00 13.41667 C 36.8333 %
366 11-03-2020 05:00:00 13.05 C 37.1667 %
367 11-03-2020 06:00:00 13.28333 C 36.3333 %
368 11-03-2020 07:00:00 13.08333 C 36.1667 %
369 11-03-2020 08:00:00 12.7 C 37.0000 %
370 11-03-2020 09:00:00 13.58333 C 35.6667 %
371 11-03-2020 10:00:00 14.11667 C 35.3333 %
372 11-03-2020 11:00:00 15.43333 C 33.6667 %
373 11-03-2020 12:00:00 16.31667 C 32.1667 %
374 11-03-2020 13:00:00 16.56667 C 31.3333 %
375 11-03-2020 14:00:00 16.11667 C 31.0000 %
Sensor: Nr:Datum:Temp:Feuchte:
Aussen-T/F 376 11-03-2020 15:00:00 16.11667 C 31.5000 %
377 11-03-2020 16:00:00 14.71667 C 34.3333 %
378 11-03-2020 17:00:00 13.51667 C 36.8333 %
379 11-03-2020 18:00:00 13.43333 C 36.1667 %
380 11-03-2020 19:00:00 13.21667 C 36.5000 %
381 11-03-2020 20:00:00 13.5 C 36.0000 %
382 11-03-2020 21:00:00 13.63333 C 35.6667 %
383 11-03-2020 22:00:00 13.91667 C 34.6667 %
384 11-03-2020 23:00:00 13.8 C 34.0000 %
385 12-03-2020 00:00:00 13.7 C 34.0000 %
386 12-03-2020 01:00:00 13.81667 C 34.0000 %
387 12-03-2020 02:00:00 13.61667 C 33.5000 %
388 12-03-2020 03:00:00 13.36667 C 32.1667 %
389 12-03-2020 04:00:00 13.03333 C 32.0000 %
390 12-03-2020 05:00:00 12.55 C 33.6667 %
391 12-03-2020 06:00:00 12.03333 C 34.5000 %
392 12-03-2020 07:00:00 11.68333 C 36.1667 %
393 12-03-2020 08:00:00 10.43333 C 39.6667 %
394 12-03-2020 09:00:00 10.85 C 36.3333 %
395 12-03-2020 10:00:00 11.51667 C 33.3333 %
396 12-03-2020 11:00:00 11.81667 C 24.0000 %
397 12-03-2020 12:00:00 12.31667 C 20.0000 %
398 12-03-2020 13:00:00 12.4 C 20.0000 %
399 12-03-2020 14:00:00 12.46667 C 20.0000 %
400 12-03-2020 15:00:00 11.78333 C 20.0000 %
Sensor: Nr:Datum:Temp:Feuchte:
Aussen-T/F 401 12-03-2020 16:00:00 11.76667 C 20.0000 %
402 12-03-2020 17:00:00 11.15 C 20.3333 %
403 12-03-2020 18:00:00 8.93333 C 30.1667 %
404 12-03-2020 19:00:00 6.91667 C 35.1667 %
405 12-03-2020 20:00:00 6.93333 C 35.5000 %
406 12-03-2020 21:00:00 7.25 C 35.1667 %
407 12-03-2020 22:00:00 7.38333 C 35.0000 %
408 12-03-2020 23:00:00 6.66667 C 34.1667 %
409 13-03-2020 00:00:00 6.2 C 32.1667 %
410 13-03-2020 01:00:00 5.25 C 33.3333 %
411 13-03-2020 02:00:00 5.03333 C 34.1667 %
412 13-03-2020 03:00:00 5.13333 C 34.0000 %
413 13-03-2020 04:00:00 5.05 C 34.5000 %
414 13-03-2020 05:00:00 5.4 C 34.0000 %
415 13-03-2020 06:00:00 5.46667 C 34.3333 %
416 13-03-2020 07:00:00 5.56667 C 35.0000 %
417 13-03-2020 08:00:00 6.05 C 34.8333 %
418 13-03-2020 09:00:00 6.88333 C 33.6667 %
419 13-03-2020 10:00:00 7.85 C 32.8333 %
420 13-03-2020 11:00:00 8.15 C 33.1667 %
421 13-03-2020 12:00:00 9.16667 C 30.5000 %
422 13-03-2020 13:00:00 9.28333 C 31.0000 %
423 13-03-2020 14:00:00 9.58333 C 29.8333 %
424 13-03-2020 15:00:00 9.96667 C 27.3333 %
425 13-03-2020 16:00:00 9.53333 C 28.3333 %
Sensor: Nr:Datum:Temp:Feuchte:
Aussen-T/F 426 13-03-2020 17:00:00 9.25 C 30.0000 %
427 13-03-2020 18:00:00 8.33333 C 31.3333 %
428 13-03-2020 19:00:00 7.33333 C 34.6667 %
429 13-03-2020 20:00:00 6.53333 C 36.3333 %
430 13-03-2020 21:00:00 5.85 C 37.8333 %
431 13-03-2020 22:00:00 5.56667 C 39.1667 %
432 13-03-2020 23:00:00 5.38333 C 39.8333 %
433 14-03-2020 00:00:00 4 C 42.0000 %
434 14-03-2020 01:00:00 2.36667 C 46.5000 %
435 14-03-2020 02:00:00 3.05 C 45.6667 %
436 14-03-2020 03:00:00 1.56667 C 47.5000 %
437 14-03-2020 04:00:00 1.5 C 48.3333 %
438 14-03-2020 05:00:00 0.98333 C 49.0000 %
439 14-03-2020 06:00:00 0.55 C 49.6667 %
440 14-03-2020 07:00:00 0.71667 C 49.5000 %
441 14-03-2020 08:00:00 1.78333 C 48.5000 %
442 14-03-2020 09:00:00 3.91667 C 44.3333 %
443 14-03-2020 10:00:00 7.05 C 38.5000 %
444 14-03-2020 11:00:00 10.36667 C 32.3333 %
445 14-03-2020 12:00:00 12.21667 C 27.1667 %
446 14-03-2020 13:00:00 12.98333 C 22.5000 %
447 14-03-2020 14:00:00 12.73333 C 21.0000 %
448 14-03-2020 15:00:00 11.85 C 20.8333 %
449 14-03-2020 16:00:00 10.33333 C 25.5000 %
450 14-03-2020 17:00:00 9.8 C 27.1667 %
Sensor: Nr:Datum:Temp:Feuchte:
Aussen-T/F 451 14-03-2020 18:00:00 6.76667 C 34.6667 %
452 14-03-2020 19:00:00 5.33333 C 38.8333 %
453 14-03-2020 20:00:00 5.45 C 39.0000 %
454 14-03-2020 21:00:00 5.38333 C 38.8333 %
455 14-03-2020 22:00:00 5 C 39.1667 %
456 14-03-2020 23:00:00 5.66667 C 39.5000 %
457 15-03-2020 00:00:00 5.78333 C 38.5000 %
458 15-03-2020 01:00:00 5.21667 C 39.6667 %
459 15-03-2020 02:00:00 4.9 C 40.0000 %
460 15-03-2020 03:00:00 4.08333 C 40.5000 %
461 15-03-2020 04:00:00 3.71667 C 41.0000 %
462 15-03-2020 05:00:00 3.2 C 41.0000 %
463 15-03-2020 06:00:00 3.21667 C 41.3333 %
464 15-03-2020 07:00:00 3.46667 C 41.3333 %
465 15-03-2020 08:00:00 5.81667 C 38.6667 %
466 15-03-2020 09:00:00 7.95 C 35.5000 %
467 15-03-2020 10:00:00 10.8 C 30.3333 %
468 15-03-2020 11:00:00 14.95 C 21.3333 %
469 15-03-2020 12:00:00 14.71667 C 20.0000 %
470 15-03-2020 13:00:00 16.78333 C 20.0000 %
471 15-03-2020 14:00:00 16.18333 C 20.0000 %
472 15-03-2020 15:00:00 19.68333 C 20.0000 %
473 15-03-2020 16:00:00 19.43333 C 20.0000 %
474 15-03-2020 17:00:00 14.71667 C 20.5000 %
475 15-03-2020 18:00:00 10.98333 C 27.0000 %
Sensor: Nr:Datum:Temp:Feuchte:
Aussen-T/F 476 15-03-2020 19:00:00 9.2 C 30.5000 %
477 15-03-2020 20:00:00 8.15 C 32.1667 %
478 15-03-2020 21:00:00 7.06667 C 35.1667 %
479 15-03-2020 22:00:00 5.05 C 38.6667 %
480 15-03-2020 23:00:00 4.45 C 40.0000 %
481 16-03-2020 00:00:00 3.53333 C 41.3333 %
482 16-03-2020 01:00:00 2.91667 C 42.8333 %
483 16-03-2020 02:00:00 2.66667 C 44.5000 %
484 16-03-2020 03:00:00 2.05 C 45.0000 %
485 16-03-2020 04:00:00 1.73333 C 46.0000 %
486 16-03-2020 05:00:00 1.43333 C 46.1667 %
487 16-03-2020 06:00:00 0.73333 C 48.0000 %
488 16-03-2020 07:00:00 1.3 C 48.0000 %
489 16-03-2020 08:00:00 2.43333 C 46.5000 %
490 16-03-2020 09:00:00 4.38333 C 44.1667 %
491 16-03-2020 10:00:00 9.05 C 38.1667 %
492 16-03-2020 11:00:00 15.06667 C 27.5000 %
493 16-03-2020 12:00:00 17.26667 C 23.1667 %
494 16-03-2020 13:00:00 21 C 20.0000 %
495 16-03-2020 14:00:00 19.68333 C 20.0000 %
496 16-03-2020 15:00:00 19.11667 C 20.0000 %
497 16-03-2020 16:00:00 19.91667 C 20.0000 %
498 16-03-2020 17:00:00 17.38333 C 20.6667 %
499 16-03-2020 18:00:00 13.53333 C 29.1667 %
500 16-03-2020 19:00:00 11.81667 C 33.1667 %
Sensor: Nr:Datum:Temp:Feuchte:
Aussen-T/F 501 16-03-2020 20:00:00 10.58333 C 36.3333 %
502 16-03-2020 21:00:00 10.01667 C 37.6667 %
503 16-03-2020 22:00:00 9.31667 C 38.5000 %
504 16-03-2020 23:00:00 9.45 C 39.1667 %
505 17-03-2020 00:00:00 9.31667 C 39.5000 %
506 17-03-2020 01:00:00 8.95 C 40.5000 %
507 17-03-2020 02:00:00 8.78333 C 41.0000 %
508 17-03-2020 03:00:00 8.33333 C 41.1667 %
509 17-03-2020 04:00:00 9 C 40.5000 %
510 17-03-2020 05:00:00 8.53333 C 40.8333 %
511 17-03-2020 06:00:00 8.11667 C 41.0000 %
512 17-03-2020 07:00:00 9.38333 C 39.1667 %
513 17-03-2020 08:00:00 9.95 C 37.5000 %
514 17-03-2020 09:00:00 10.48333 C 37.0000 %
515 17-03-2020 10:00:00 11.6 C 34.8333 %
516 17-03-2020 11:00:00 13.98333 C 30.1667 %
517 17-03-2020 12:00:00 16.11667 C 25.3333 %
518 17-03-2020 13:00:00 19.21667 C 20.0000 %
519 17-03-2020 14:00:00 19.08333 C 20.0000 %
520 17-03-2020 15:00:00 23.28333 C 20.0000 %
521 17-03-2020 16:00:00 22.01667 C 20.0000 %
522 17-03-2020 17:00:00 16.98333 C 21.0000 %
523 17-03-2020 18:00:00 13 C 29.3333 %
524 17-03-2020 19:00:00 11.06667 C 33.5000 %
525 17-03-2020 20:00:00 10.03333 C 36.0000 %
Sensor: Nr:Datum:Temp:Feuchte:
Aussen-T/F 526 17-03-2020 21:00:00 8.25 C 39.0000 %
527 17-03-2020 22:00:00 6.93333 C 41.1667 %
528 17-03-2020 23:00:00 6.23333 C 42.3333 %
529 18-03-2020 00:00:00 5.9 C 43.6667 %
530 18-03-2020 01:00:00 5.51667 C 44.6667 %
531 18-03-2020 02:00:00 4.65 C 45.3333 %
532 18-03-2020 03:00:00 4.01667 C 46.3333 %
533 18-03-2020 04:00:00 3.7 C 47.0000 %
534 18-03-2020 05:00:00 3.4 C 47.3333 %
535 18-03-2020 06:00:00 3.18333 C 47.1667 %
536 18-03-2020 07:00:00 3.9 C 46.6667 %
537 18-03-2020 08:00:00 4.95 C 45.8333 %
538 18-03-2020 09:00:00 8.91667 C 42.3333 %
539 18-03-2020 10:00:00 11.7 C 37.0000 %
540 18-03-2020 11:00:00 13.78333 C 33.0000 %
541 18-03-2020 12:00:00 17.68333 C 26.1667 %
542 18-03-2020 13:00:00 18.66667 C 20.6667 %
543 18-03-2020 14:00:00 17.58333 C 20.1667 %
544 18-03-2020 15:00:00 18 C 20.1667 %
545 18-03-2020 16:00:00 16.33333 C 20.8333 %
546 18-03-2020 17:00:00 15.96667 C 21.0000 %
547 18-03-2020 18:00:00 13.63333 C 27.1667 %
548 18-03-2020 19:00:00 11.1 C 33.5000 %
549 18-03-2020 20:00:00 10.13333 C 35.8333 %
550 18-03-2020 21:00:00 9.13333 C 37.5000 %
Sensor: Nr:Datum:Temp:Feuchte:
Aussen-T/F 551 18-03-2020 22:00:00 8.1 C 39.8333 %
552 18-03-2020 23:00:00 8.28333 C 40.0000 %
553 19-03-2020 00:00:00 9 C 38.1667 %
554 19-03-2020 01:00:00 8.96667 C 38.1667 %
555 19-03-2020 02:00:00 8.58333 C 39.0000 %
556 19-03-2020 03:00:00 8.48333 C 39.1667 %
557 19-03-2020 04:00:00 8.48333 C 39.3333 %
558 19-03-2020 05:00:00 8.61667 C 38.8333 %
559 19-03-2020 06:00:00 8.21667 C 39.6667 %
560 19-03-2020 07:00:00 8.8 C 39.0000 %
561 19-03-2020 08:00:00 10.1 C 36.6667 %
562 19-03-2020 09:00:00 11.7 C 34.6667 %
563 19-03-2020 10:00:00 13.73333 C 30.5000 %
564 19-03-2020 11:00:00 16.48333 C 26.5000 %
565 19-03-2020 12:00:00 17.01667 C 24.0000 %
566 19-03-2020 13:00:00 21.41667 C 20.0000 %
567 19-03-2020 14:00:00 18.95 C 20.0000 %
568 19-03-2020 15:00:00 19.66667 C 20.0000 %
569 19-03-2020 16:00:00 18.98333 C 20.0000 %
570 19-03-2020 17:00:00 17.05 C 20.0000 %
571 19-03-2020 18:00:00 14.15 C 27.3333 %
572 19-03-2020 19:00:00 11.91667 C 32.0000 %
573 19-03-2020 20:00:00 11.68333 C 33.8333 %
574 19-03-2020 21:00:00 11.05 C 35.1667 %
575 19-03-2020 22:00:00 9.66667 C 38.1667 %
Sensor: Nr:Datum:Temp:Feuchte:
Aussen-T/F 576 19-03-2020 23:00:00 9.25 C 38.8333 %
577 20-03-2020 00:00:00 8.96 C 39.4000 %
578 20-03-2020 01:00:00 8.61667 C 40.0000 %
579 20-03-2020 02:00:00 7.61667 C 40.6667 %
580 20-03-2020 03:00:00 7.21667 C 42.0000 %
581 20-03-2020 04:00:00 7.4 C 41.8333 %
582 20-03-2020 05:00:00 6.31667 C 43.3333 %
583 20-03-2020 06:00:00 5.11667 C 45.5000 %
584 20-03-2020 07:00:00 5.5 C 46.0000 %
585 20-03-2020 08:00:00 6.98333 C 43.8333 %
586 20-03-2020 09:00:00 9.41667 C 41.0000 %
587 20-03-2020 10:00:00 11.36667 C 37.3333 %
588 20-03-2020 11:00:00 14.13333 C 33.0000 %
589 20-03-2020 12:00:00 15.13333 C 30.6667 %
590 20-03-2020 13:00:00 15.15 C 30.1667 %
591 20-03-2020 14:00:00 16.93333 C 26.1667 %
592 20-03-2020 15:00:00 17.73333 C 25.0000 %
593 20-03-2020 16:00:00 15.98333 C 25.8333 %
594 20-03-2020 17:00:00 14.13333 C 28.8333 %
595 20-03-2020 18:00:00 11.8 C 33.5000 %
596 20-03-2020 19:00:00 11.03333 C 34.5000 %
597 20-03-2020 20:00:00 10.28333 C 35.0000 %
598 20-03-2020 21:00:00 9.41667 C 35.1667 %
599 20-03-2020 22:00:00 8.26667 C 36.0000 %
600 20-03-2020 23:00:00 7.86667 C 35.3333 %
Sensor: Nr:Datum:Temp:Feuchte:
Aussen-T/F 601 21-03-2020 00:00:00 7.41667 C 34.0000 %
602 21-03-2020 01:00:00 6.61667 C 35.0000 %
603 21-03-2020 02:00:00 5.06667 C 41.5000 %
604 21-03-2020 03:00:00 4.45 C 44.5000 %
605 21-03-2020 04:00:00 4.1 C 45.1667 %
606 21-03-2020 05:00:00 3.93333 C 46.5000 %
607 21-03-2020 06:00:00 3.98333 C 47.0000 %
608 21-03-2020 07:00:00 4.18333 C 47.0000 %
609 21-03-2020 08:00:00 4.58333 C 46.3333 %
610 21-03-2020 09:00:00 5.31667 C 43.0000 %
611 21-03-2020 10:00:00 6.48333 C 39.3333 %
612 21-03-2020 11:00:00 7.55 C 34.8333 %
613 21-03-2020 12:00:00 8 C 31.5000 %
614 21-03-2020 13:00:00 8.43333 C 28.3333 %
615 21-03-2020 14:00:00 9.4 C 25.3333 %
616 21-03-2020 15:00:00 10.33333 C 20.0000 %
617 21-03-2020 16:00:00 11.2 C 20.0000 %
618 21-03-2020 17:00:00 8.25 C 20.0000 %
619 21-03-2020 18:00:00 6.38333 C 22.6667 %
620 21-03-2020 19:00:00 4.76667 C 29.0000 %
621 21-03-2020 20:00:00 3.7 C 31.1667 %
622 21-03-2020 21:00:00 3.05 C 32.0000 %
623 21-03-2020 22:00:00 2.48333 C 33.1667 %
624 21-03-2020 23:00:00 1.83333 C 34.5000 %
625 22-03-2020 00:00:00 1.1 C 36.3333 %
Sensor: Nr:Datum:Temp:Feuchte:
Aussen-T/F 626 22-03-2020 01:00:00 1.18333 C 35.1667 %
627 22-03-2020 02:00:00 0.46667 C 37.0000 %
628 22-03-2020 03:00:00 -0.05 C 38.0000 %
629 22-03-2020 04:00:00 -0.06667 C 37.5000 %
630 22-03-2020 05:00:00 -0.46667 C 37.6667 %
631 22-03-2020 06:00:00 -0.41667 C 37.5000 %
632 22-03-2020 07:00:00 -0.21667 C 36.6667 %
633 22-03-2020 08:00:00 0.36667 C 35.3333 %
634 22-03-2020 09:00:00 1.85 C 30.3333 %
635 22-03-2020 10:00:00 4.16667 C 21.6667 %
636 22-03-2020 11:00:00 6.36667 C 20.0000 %
637 22-03-2020 12:00:00 7.51667 C 20.0000 %
638 22-03-2020 13:00:00 10.98333 C 20.0000 %
639 22-03-2020 14:00:00 12.23333 C 20.0000 %
640 22-03-2020 15:00:00 14.46667 C 20.0000 %
641 22-03-2020 16:00:00 13.9 C 20.0000 %
642 22-03-2020 17:00:00 9.75 C 20.0000 %
643 22-03-2020 18:00:00 7.65 C 20.0000 %
644 22-03-2020 19:00:00 4.58333 C 23.6667 %
645 22-03-2020 20:00:00 3.25 C 27.1667 %
646 22-03-2020 21:00:00 2.23333 C 28.8333 %
647 22-03-2020 22:00:00 1.75 C 29.3333 %
648 22-03-2020 23:00:00 0.63333 C 32.5000 %
649 23-03-2020 00:00:00 -0.35 C 34.5000 %
650 23-03-2020 01:00:00 -0.81667 C 35.1667 %
Sensor: Nr:Datum:Temp:Feuchte:
Aussen-T/F 651 23-03-2020 02:00:00 -1.23333 C 35.0000 %
652 23-03-2020 03:00:00 -1.75 C 35.0000 %
653 23-03-2020 04:00:00 -2.1 C 35.1667 %
654 23-03-2020 05:00:00 -2.5 C 35.8333 %
655 23-03-2020 06:00:00 -2.85 C 36.0000 %
656 23-03-2020 07:00:00 -2.63333 C 35.5000 %
657 23-03-2020 08:00:00 -0.86667 C 29.3333 %
658 23-03-2020 09:00:00 0.78333 C 21.0000 %
659 23-03-2020 10:00:00 3.45 C 20.0000 %
660 23-03-2020 11:00:00 6.03333 C 20.0000 %
661 23-03-2020 12:00:00 7.75 C 20.0000 %
662 23-03-2020 13:00:00 10.7 C 20.0000 %
663 23-03-2020 14:00:00 12.35 C 20.0000 %
664 23-03-2020 15:00:00 14.23333 C 20.0000 %
665 23-03-2020 16:00:00 14.11667 C 20.0000 %
666 23-03-2020 17:00:00 9.3 C 20.0000 %
667 23-03-2020 18:00:00 6.66667 C 20.0000 %
668 23-03-2020 19:00:00 3.61667 C 20.0000 %
669 23-03-2020 20:00:00 2.5 C 20.0000 %
670 23-03-2020 21:00:00 1 C 26.6667 %
671 23-03-2020 22:00:00 -0.76667 C 34.1667 %
672 23-03-2020 23:00:00 -1.68333 C 36.5000 %
673 24-03-2020 00:00:00 -2.23333 C 36.8333 %
674 24-03-2020 01:00:00 -2.63333 C 37.5000 %
675 24-03-2020 02:00:00 -3.03333 C 38.0000 %
Sensor: Nr:Datum:Temp:Feuchte:
Aussen-T/F 676 24-03-2020 03:00:00 -3.61667 C 38.3333 %
677 24-03-2020 04:00:00 -3.91667 C 38.1667 %
678 24-03-2020 05:00:00 -4.33333 C 38.3333 %
679 24-03-2020 06:00:00 -4.63333 C 38.5000 %
680 24-03-2020 07:00:00 -4.2 C 39.0000 %
681 24-03-2020 08:00:00 -2.9 C 37.8333 %
682 24-03-2020 09:00:00 0.1 C 30.8333 %
683 24-03-2020 10:00:00 4.15 C 20.0000 %
684 24-03-2020 11:00:00 6.81667 C 20.0000 %
685 24-03-2020 12:00:00 8.5 C 20.0000 %
686 24-03-2020 13:00:00 11.75 C 20.0000 %
687 24-03-2020 14:00:00 12.63333 C 20.0000 %
688 24-03-2020 15:00:00 14.55 C 20.0000 %
689 24-03-2020 16:00:00 13.83333 C 20.0000 %
690 24-03-2020 17:00:00 10.01667 C 20.0000 %
691 24-03-2020 18:00:00 7.56667 C 20.0000 %
692 24-03-2020 19:00:00 4.26667 C 20.0000 %
693 24-03-2020 20:00:00 3.25 C 20.0000 %
694 24-03-2020 21:00:00 2.38333 C 20.0000 %
695 24-03-2020 22:00:00 0.71667 C 24.1667 %
696 24-03-2020 23:00:00 -1.25 C 30.6667 %
Sensor: Nr:Datum:Temp:Feuchte:
G-T/H 1 25-02-2020 00:00:00 10.7 C 74.0000 %
2 25-02-2020 01:00:00 10.71667 C 74.0000 %
3 25-02-2020 02:00:00 10.8 C 74.0000 %
4 25-02-2020 03:00:00 10.8 C 74.0000 %
5 25-02-2020 04:00:00 10.8 C 74.0000 %
6 25-02-2020 05:00:00 10.81667 C 74.0000 %
7 25-02-2020 06:00:00 10.81667 C 74.0000 %
8 25-02-2020 07:00:00 10.88333 C 74.0000 %
9 25-02-2020 08:00:00 10.88333 C 74.0000 %
10 25-02-2020 09:00:00 10.9 C 74.0000 %
11 25-02-2020 10:00:00 10.9 C 74.0000 %
12 25-02-2020 11:00:00 10.9 C 74.0000 %
13 25-02-2020 12:00:00 10.9 C 74.0000 %
14 25-02-2020 13:00:00 10.96667 C 73.0000 %
15 25-02-2020 14:00:00 11 C 72.6667 %
16 25-02-2020 15:00:00 11 C 72.0000 %
17 25-02-2020 16:00:00 11 C 71.8333 %
18 25-02-2020 17:00:00 11 C 71.0000 %
19 25-02-2020 18:00:00 11 C 71.6667 %
20 25-02-2020 19:00:00 11 C 72.0000 %
21 25-02-2020 20:00:00 11 C 72.0000 %
22 25-02-2020 21:00:00 10.91667 C 72.8333 %
23 25-02-2020 22:00:00 10.85 C 71.6667 %
24 25-02-2020 23:00:00 10.76667 C 70.0000 %
25 26-02-2020 00:00:00 10.66667 C 69.1667 %
Sensor: Nr:Datum:Temp:Feuchte:
G-T/H 26 26-02-2020 01:00:00 10.58333 C 69.0000 %
27 26-02-2020 02:00:00 10.48333 C 68.5000 %
28 26-02-2020 03:00:00 10.4 C 67.8333 %
29 26-02-2020 04:00:00 10.28333 C 67.0000 %
30 26-02-2020 05:00:00 10.2 C 66.8333 %
31 26-02-2020 06:00:00 10.1 C 66.0000 %
32 26-02-2020 07:00:00 10.01667 C 66.0000 %
33 26-02-2020 08:00:00 10 C 66.8333 %
34 26-02-2020 09:00:00 9.98333 C 67.8333 %
35 26-02-2020 10:00:00 9.9 C 69.0000 %
36 26-02-2020 11:00:00 9.9 C 69.5000 %
37 26-02-2020 12:00:00 9.88333 C 70.0000 %
38 26-02-2020 13:00:00 9.9 C 70.0000 %
39 26-02-2020 14:00:00 9.9 C 70.0000 %
40 26-02-2020 15:00:00 9.9 C 70.0000 %
41 26-02-2020 16:00:00 9.9 C 70.0000 %
42 26-02-2020 17:00:00 9.9 C 70.0000 %
43 26-02-2020 18:00:00 9.88333 C 70.0000 %
44 26-02-2020 19:00:00 9.88333 C 70.5000 %
45 26-02-2020 20:00:00 9.81667 C 70.3333 %
46 26-02-2020 21:00:00 9.8 C 70.0000 %
47 26-02-2020 22:00:00 9.71667 C 70.0000 %
48 26-02-2020 23:00:00 9.7 C 70.0000 %
49 27-02-2020 00:00:00 9.61667 C 70.0000 %
50 27-02-2020 01:00:00 9.6 C 70.0000 %
Sensor: Nr:Datum:Temp:Feuchte:
G-T/H 51 27-02-2020 02:00:00 9.53333 C 70.0000 %
52 27-02-2020 03:00:00 9.46667 C 70.0000 %
53 27-02-2020 04:00:00 9.41667 C 70.0000 %
54 27-02-2020 05:00:00 9.3 C 70.0000 %
55 27-02-2020 06:00:00 9.23333 C 70.0000 %
56 27-02-2020 07:00:00 9.2 C 70.0000 %
57 27-02-2020 08:00:00 9.1 C 70.0000 %
58 27-02-2020 09:00:00 9.1 C 70.0000 %
59 27-02-2020 10:00:00 9.03333 C 70.0000 %
60 27-02-2020 11:00:00 9.01667 C 70.0000 %
61 27-02-2020 12:00:00 9 C 70.1667 %
62 27-02-2020 13:00:00 9 C 71.0000 %
63 27-02-2020 14:00:00 9 C 71.0000 %
64 27-02-2020 15:00:00 9 C 71.0000 %
65 27-02-2020 16:00:00 9 C 70.5000 %
66 27-02-2020 17:00:00 8.91667 C 70.8333 %
67 27-02-2020 18:00:00 8.91667 C 70.3333 %
68 27-02-2020 19:00:00 9.26667 C 73.0000 %
69 27-02-2020 20:00:00 9.36667 C 74.0000 %
70 27-02-2020 21:00:00 9.23333 C 74.0000 %
71 27-02-2020 22:00:00 9.06667 C 74.0000 %
72 27-02-2020 23:00:00 8.93333 C 74.6667 %
73 28-02-2020 00:00:00 8.85 C 75.0000 %
74 28-02-2020 01:00:00 8.76667 C 75.0000 %
75 28-02-2020 02:00:00 8.65 C 74.0000 %
Sensor: Nr:Datum:Temp:Feuchte:
G-T/H 76 28-02-2020 03:00:00 8.55 C 74.0000 %
77 28-02-2020 04:00:00 8.45 C 74.0000 %
78 28-02-2020 05:00:00 8.36667 C 74.0000 %
79 28-02-2020 06:00:00 8.26667 C 74.0000 %
80 28-02-2020 07:00:00 8.1 C 73.1667 %
81 28-02-2020 08:00:00 8.1 C 73.0000 %
82 28-02-2020 09:00:00 8.1 C 73.0000 %
83 28-02-2020 10:00:00 8 C 73.0000 %
84 28-02-2020 11:00:00 8 C 73.0000 %
85 28-02-2020 12:00:00 8 C 73.0000 %
86 28-02-2020 13:00:00 8 C 73.0000 %
87 28-02-2020 14:00:00 8.08333 C 73.3333 %
88 28-02-2020 15:00:00 8.11667 C 74.0000 %
89 28-02-2020 16:00:00 8.2 C 74.0000 %
90 28-02-2020 17:00:00 8.26667 C 74.0000 %
91 28-02-2020 18:00:00 8.3 C 74.0000 %
92 28-02-2020 19:00:00 8.4 C 74.0000 %
93 28-02-2020 20:00:00 8.41667 C 74.0000 %
94 28-02-2020 21:00:00 8.46667 C 74.0000 %
95 28-02-2020 22:00:00 8.5 C 74.0000 %
96 28-02-2020 23:00:00 8.5 C 74.0000 %
97 29-02-2020 00:00:00 8.56667 C 75.0000 %
98 29-02-2020 01:00:00 8.6 C 75.0000 %
99 29-02-2020 02:00:00 8.6 C 75.0000 %
100 29-02-2020 03:00:00 8.63333 C 75.0000 %
Sensor: Nr:Datum:Temp:Feuchte:
G-T/H 101 29-02-2020 04:00:00 8.7 C 75.0000 %
102 29-02-2020 05:00:00 8.71667 C 75.0000 %
103 29-02-2020 06:00:00 8.78333 C 75.5000 %
104 29-02-2020 07:00:00 8.81667 C 76.0000 %
105 29-02-2020 08:00:00 8.9 C 76.0000 %
106 29-02-2020 09:00:00 8.91667 C 75.8333 %
107 29-02-2020 10:00:00 9 C 75.0000 %
108 29-02-2020 11:00:00 9.1 C 75.0000 %
109 29-02-2020 12:00:00 9.35 C 75.0000 %
110 29-02-2020 13:00:00 9.45 C 75.0000 %
111 29-02-2020 14:00:00 9.56667 C 75.0000 %
112 29-02-2020 15:00:00 9.65 C 75.3333 %
113 29-02-2020 16:00:00 9.76667 C 76.0000 %
114 29-02-2020 17:00:00 9.85 C 76.0000 %
115 29-02-2020 18:00:00 9.91667 C 75.8333 %
116 29-02-2020 19:00:00 9.91667 C 75.6667 %
117 29-02-2020 20:00:00 9.98333 C 74.3333 %
118 29-02-2020 21:00:00 10 C 74.0000 %
119 29-02-2020 22:00:00 10 C 74.0000 %
120 29-02-2020 23:00:00 9.96667 C 74.3333 %
121 01-03-2020 00:00:00 9.9 C 75.0000 %
122 01-03-2020 01:00:00 9.83333 C 74.5000 %
123 01-03-2020 02:00:00 9.8 C 74.0000 %
124 01-03-2020 03:00:00 9.78333 C 74.0000 %
125 01-03-2020 04:00:00 9.7 C 74.0000 %
Sensor: Nr:Datum:Temp:Feuchte:
G-T/H 126 01-03-2020 05:00:00 9.7 C 74.0000 %
127 01-03-2020 06:00:00 9.7 C 74.0000 %
128 01-03-2020 07:00:00 9.68333 C 74.0000 %
129 01-03-2020 08:00:00 9.65 C 74.0000 %
130 01-03-2020 09:00:00 9.6 C 74.0000 %
131 01-03-2020 10:00:00 9.6 C 74.0000 %
132 01-03-2020 11:00:00 9.6 C 74.5000 %
133 01-03-2020 12:00:00 9.6 C 75.0000 %
134 01-03-2020 13:00:00 9.65 C 75.0000 %
135 01-03-2020 14:00:00 9.7 C 75.0000 %
136 01-03-2020 15:00:00 9.8 C 75.0000 %
137 01-03-2020 16:00:00 9.88333 C 75.0000 %
138 01-03-2020 17:00:00 9.9 C 75.0000 %
139 01-03-2020 18:00:00 10 C 74.0000 %
140 01-03-2020 19:00:00 10 C 74.0000 %
141 01-03-2020 20:00:00 10.01667 C 74.1667 %
142 01-03-2020 21:00:00 10.08333 C 74.0000 %
143 01-03-2020 22:00:00 10.06667 C 74.0000 %
144 01-03-2020 23:00:00 10.06667 C 74.0000 %
145 02-03-2020 00:00:00 10 C 73.3333 %
146 02-03-2020 01:00:00 9.9 C 73.3333 %
147 02-03-2020 02:00:00 9.81667 C 72.6667 %
148 02-03-2020 03:00:00 9.73333 C 72.0000 %
149 02-03-2020 04:00:00 9.7 C 72.0000 %
150 02-03-2020 05:00:00 9.65 C 72.0000 %
Sensor: Nr:Datum:Temp:Feuchte:
G-T/H 151 02-03-2020 06:00:00 9.58333 C 72.0000 %
152 02-03-2020 07:00:00 9.5 C 72.0000 %
153 02-03-2020 08:00:00 9.45 C 72.6667 %
154 02-03-2020 09:00:00 9.36667 C 73.0000 %
155 02-03-2020 10:00:00 9.31667 C 73.0000 %
156 02-03-2020 11:00:00 9.38333 C 73.0000 %
157 02-03-2020 12:00:00 9.41667 C 73.6667 %
158 02-03-2020 13:00:00 9.5 C 74.0000 %
159 02-03-2020 14:00:00 9.56667 C 74.0000 %
160 02-03-2020 15:00:00 9.65 C 74.0000 %
161 02-03-2020 16:00:00 9.7 C 74.3333 %
162 02-03-2020 17:00:00 9.78333 C 75.0000 %
163 02-03-2020 18:00:00 9.8 C 75.0000 %
164 02-03-2020 19:00:00 9.86667 C 75.0000 %
165 02-03-2020 20:00:00 9.9 C 75.0000 %
166 02-03-2020 21:00:00 9.9 C 75.0000 %
167 02-03-2020 22:00:00 9.9 C 75.0000 %
168 02-03-2020 23:00:00 9.9 C 75.0000 %
169 03-03-2020 00:00:00 9.9 C 75.0000 %
170 03-03-2020 01:00:00 9.9 C 75.0000 %
171 03-03-2020 02:00:00 9.9 C 75.0000 %
172 03-03-2020 03:00:00 9.88333 C 74.3333 %
173 03-03-2020 04:00:00 9.8 C 74.0000 %
174 03-03-2020 05:00:00 9.76667 C 74.0000 %
175 03-03-2020 06:00:00 9.68333 C 74.0000 %
Sensor: Nr:Datum:Temp:Feuchte:
G-T/H 176 03-03-2020 07:00:00 9.63333 C 73.0000 %
177 03-03-2020 08:00:00 9.58333 C 73.0000 %
178 03-03-2020 09:00:00 9.5 C 73.0000 %
179 03-03-2020 10:00:00 9.5 C 73.0000 %
180 03-03-2020 11:00:00 9.46667 C 73.0000 %
181 03-03-2020 12:00:00 9.4 C 73.0000 %
182 03-03-2020 13:00:00 9.41667 C 73.6667 %
183 03-03-2020 14:00:00 9.48333 C 74.0000 %
184 03-03-2020 15:00:00 9.43333 C 74.0000 %
185 03-03-2020 16:00:00 9.46667 C 73.8333 %
186 03-03-2020 17:00:00 9.31667 C 71.1667 %
187 03-03-2020 18:00:00 9.4 C 72.0000 %
188 03-03-2020 19:00:00 9.38333 C 72.6667 %
189 03-03-2020 20:00:00 9.31667 C 73.0000 %
190 03-03-2020 21:00:00 9.3 C 72.0000 %
191 03-03-2020 22:00:00 9.25 C 72.0000 %
192 03-03-2020 23:00:00 9.2 C 72.0000 %
193 04-03-2020 00:00:00 9.1 C 72.0000 %
194 04-03-2020 01:00:00 9.05 C 72.0000 %
195 04-03-2020 02:00:00 9 C 72.0000 %
196 04-03-2020 03:00:00 8.93333 C 72.6667 %
197 04-03-2020 04:00:00 8.9 C 73.0000 %
198 04-03-2020 05:00:00 8.8 C 73.0000 %
199 04-03-2020 06:00:00 8.78333 C 73.3333 %
200 04-03-2020 07:00:00 8.71667 C 74.0000 %
Sensor: Nr:Datum:Temp:Feuchte:
G-T/H 201 04-03-2020 08:00:00 8.7 C 74.0000 %
202 04-03-2020 09:00:00 8.7 C 74.0000 %
203 04-03-2020 10:00:00 8.68333 C 74.0000 %
204 04-03-2020 11:00:00 8.7 C 74.0000 %
205 04-03-2020 12:00:00 8.73333 C 74.0000 %
206 04-03-2020 13:00:00 8.81667 C 74.0000 %
207 04-03-2020 14:00:00 8.91667 C 74.3333 %
208 04-03-2020 15:00:00 9 C 74.0000 %
209 04-03-2020 16:00:00 9.1 C 74.0000 %
210 04-03-2020 17:00:00 9.16667 C 74.0000 %
211 04-03-2020 18:00:00 9.2 C 74.0000 %
212 04-03-2020 19:00:00 9.2 C 74.0000 %
213 04-03-2020 20:00:00 9.2 C 74.0000 %
214 04-03-2020 21:00:00 9.2 C 74.0000 %
215 04-03-2020 22:00:00 9.2 C 73.0000 %
216 04-03-2020 23:00:00 9.2 C 73.0000 %
217 05-03-2020 00:00:00 9.15 C 73.0000 %
218 05-03-2020 01:00:00 9.1 C 73.0000 %
219 05-03-2020 02:00:00 9.1 C 73.0000 %
220 05-03-2020 03:00:00 9.05 C 73.0000 %
221 05-03-2020 04:00:00 9.01667 C 73.0000 %
222 05-03-2020 05:00:00 9 C 73.0000 %
223 05-03-2020 06:00:00 9 C 73.0000 %
224 05-03-2020 07:00:00 9 C 73.0000 %
225 05-03-2020 08:00:00 9 C 73.8333 %
Sensor: Nr:Datum:Temp:Feuchte:
G-T/H 226 05-03-2020 09:00:00 9 C 74.0000 %
227 05-03-2020 10:00:00 9 C 74.0000 %
228 05-03-2020 11:00:00 9 C 74.0000 %
229 05-03-2020 12:00:00 9.05 C 74.0000 %
230 05-03-2020 13:00:00 9.1 C 74.0000 %
231 05-03-2020 14:00:00 9.18333 C 74.0000 %
232 05-03-2020 15:00:00 9.2 C 74.0000 %
233 05-03-2020 16:00:00 9.26667 C 74.8333 %
234 05-03-2020 17:00:00 9.3 C 75.0000 %
235 05-03-2020 18:00:00 9.3 C 75.0000 %
236 05-03-2020 19:00:00 9.31667 C 75.0000 %
237 05-03-2020 20:00:00 9.4 C 75.0000 %
238 05-03-2020 21:00:00 9.4 C 75.0000 %
239 05-03-2020 22:00:00 9.41667 C 75.0000 %
240 05-03-2020 23:00:00 9.45 C 75.0000 %
241 06-03-2020 00:00:00 9.46667 C 75.0000 %
242 06-03-2020 01:00:00 9.5 C 75.0000 %
243 06-03-2020 02:00:00 9.5 C 75.0000 %
244 06-03-2020 03:00:00 9.5 C 75.0000 %
245 06-03-2020 04:00:00 9.5 C 75.0000 %
246 06-03-2020 05:00:00 9.5 C 75.0000 %
247 06-03-2020 06:00:00 9.5 C 75.0000 %
248 06-03-2020 07:00:00 9.5 C 75.0000 %
249 06-03-2020 08:00:00 9.5 C 75.0000 %
250 06-03-2020 09:00:00 9.5 C 75.0000 %
Sensor: Nr:Datum:Temp:Feuchte:
G-T/H 251 06-03-2020 10:00:00 9.5 C 75.0000 %
252 06-03-2020 11:00:00 9.5 C 75.0000 %
253 06-03-2020 12:00:00 9.5 C 75.0000 %
254 06-03-2020 13:00:00 9.5 C 75.0000 %
255 06-03-2020 14:00:00 9.5 C 75.0000 %
256 06-03-2020 15:00:00 9.5 C 75.0000 %
257 06-03-2020 16:00:00 9.5 C 75.0000 %
258 06-03-2020 17:00:00 9.5 C 75.0000 %
259 06-03-2020 18:00:00 9.5 C 75.0000 %
260 06-03-2020 19:00:00 9.5 C 75.0000 %
261 06-03-2020 20:00:00 9.5 C 75.0000 %
262 06-03-2020 21:00:00 9.45 C 75.0000 %
263 06-03-2020 22:00:00 9.43333 C 74.8333 %
264 06-03-2020 23:00:00 9.4 C 74.0000 %
265 07-03-2020 00:00:00 9.4 C 74.0000 %
266 07-03-2020 01:00:00 9.35 C 74.0000 %
267 07-03-2020 02:00:00 9.3 C 74.0000 %
268 07-03-2020 03:00:00 9.3 C 74.0000 %
269 07-03-2020 04:00:00 9.3 C 74.0000 %
270 07-03-2020 05:00:00 9.3 C 74.0000 %
271 07-03-2020 06:00:00 9.2 C 74.0000 %
272 07-03-2020 07:00:00 9.2 C 74.0000 %
273 07-03-2020 08:00:00 9.2 C 74.0000 %
274 07-03-2020 09:00:00 9.2 C 74.0000 %
275 07-03-2020 10:00:00 9.2 C 74.0000 %
Sensor: Nr:Datum:Temp:Feuchte:
G-T/H 276 07-03-2020 11:00:00 9.23333 C 74.0000 %
277 07-03-2020 12:00:00 9.36667 C 74.0000 %
278 07-03-2020 13:00:00 9.3 C 74.0000 %
279 07-03-2020 14:00:00 9.36667 C 74.0000 %
280 07-03-2020 15:00:00 9.45 C 74.0000 %
281 07-03-2020 16:00:00 9.5 C 74.0000 %
282 07-03-2020 17:00:00 9.55 C 74.1667 %
283 07-03-2020 18:00:00 9.55 C 75.0000 %
284 07-03-2020 19:00:00 9.6 C 74.1667 %
285 07-03-2020 20:00:00 9.6 C 74.0000 %
286 07-03-2020 21:00:00 9.6 C 74.0000 %
287 07-03-2020 22:00:00 9.6 C 74.0000 %
288 07-03-2020 23:00:00 9.6 C 74.0000 %
289 08-03-2020 00:00:00 9.6 C 74.0000 %
290 08-03-2020 01:00:00 9.6 C 74.5000 %
291 08-03-2020 02:00:00 9.6 C 75.0000 %
292 08-03-2020 03:00:00 9.6 C 75.0000 %
293 08-03-2020 04:00:00 9.6 C 75.0000 %
294 08-03-2020 05:00:00 9.6 C 75.0000 %
295 08-03-2020 06:00:00 9.6 C 75.0000 %
296 08-03-2020 07:00:00 9.6 C 75.0000 %
297 08-03-2020 08:00:00 9.6 C 75.0000 %
298 08-03-2020 09:00:00 9.6 C 75.0000 %
299 08-03-2020 10:00:00 9.68333 C 75.0000 %
300 08-03-2020 11:00:00 9.73333 C 75.0000 %
Sensor: Nr:Datum:Temp:Feuchte:
G-T/H 301 08-03-2020 12:00:00 9.85 C 75.0000 %
302 08-03-2020 13:00:00 9.98333 C 74.1667 %
303 08-03-2020 14:00:00 10.08333 C 74.0000 %
304 08-03-2020 15:00:00 10.18333 C 74.0000 %
305 08-03-2020 16:00:00 10.28333 C 74.0000 %
306 08-03-2020 17:00:00 10.41667 C 74.0000 %
307 08-03-2020 18:00:00 10.48333 C 74.8333 %
308 08-03-2020 19:00:00 10.53333 C 75.0000 %
309 08-03-2020 20:00:00 10.6 C 75.0000 %
310 08-03-2020 21:00:00 10.66667 C 75.0000 %
311 08-03-2020 22:00:00 10.7 C 75.0000 %
312 08-03-2020 23:00:00 10.7 C 75.0000 %
313 09-03-2020 00:00:00 10.7 C 75.0000 %
314 09-03-2020 01:00:00 10.7 C 75.0000 %
315 09-03-2020 02:00:00 10.7 C 75.0000 %
316 09-03-2020 03:00:00 10.7 C 75.0000 %
317 09-03-2020 04:00:00 10.7 C 75.0000 %
318 09-03-2020 05:00:00 10.66667 C 75.0000 %
319 09-03-2020 06:00:00 10.6 C 75.0000 %
320 09-03-2020 07:00:00 10.51667 C 75.0000 %
321 09-03-2020 08:00:00 10.5 C 74.1667 %
322 09-03-2020 09:00:00 10.45 C 74.0000 %
323 09-03-2020 10:00:00 10.4 C 74.0000 %
324 09-03-2020 11:00:00 10.4 C 74.0000 %
325 09-03-2020 12:00:00 10.4 C 74.0000 %
Sensor: Nr:Datum:Temp:Feuchte:
G-T/H 326 09-03-2020 13:00:00 10.46667 C 74.0000 %
327 09-03-2020 14:00:00 10.5 C 74.0000 %
328 09-03-2020 15:00:00 10.5 C 73.5000 %
329 09-03-2020 16:00:00 10.5 C 72.0000 %
330 09-03-2020 17:00:00 10.58333 C 72.0000 %
331 09-03-2020 18:00:00 10.6 C 72.5000 %
332 09-03-2020 19:00:00 10.58333 C 73.0000 %
333 09-03-2020 20:00:00 10.6 C 73.0000 %
334 09-03-2020 21:00:00 10.53333 C 73.0000 %
335 09-03-2020 22:00:00 10.46667 C 73.0000 %
336 09-03-2020 23:00:00 10.4 C 73.0000 %
337 10-03-2020 00:00:00 10.35 C 72.1667 %
338 10-03-2020 01:00:00 10.26667 C 72.0000 %
339 10-03-2020 02:00:00 10.2 C 71.5000 %
340 10-03-2020 03:00:00 10.13333 C 71.0000 %
341 10-03-2020 04:00:00 10.1 C 71.3333 %
342 10-03-2020 05:00:00 10.1 C 72.0000 %
343 10-03-2020 06:00:00 10.1 C 72.0000 %
344 10-03-2020 07:00:00 10.06667 C 72.0000 %
345 10-03-2020 08:00:00 10 C 72.8333 %
346 10-03-2020 09:00:00 10 C 73.0000 %
347 10-03-2020 10:00:00 10 C 73.0000 %
348 10-03-2020 11:00:00 10 C 73.0000 %
349 10-03-2020 12:00:00 10.03333 C 73.0000 %
350 10-03-2020 13:00:00 10.08333 C 73.8333 %
Sensor: Nr:Datum:Temp:Feuchte:
G-T/H 351 10-03-2020 14:00:00 10.11667 C 74.0000 %
352 10-03-2020 15:00:00 10.21667 C 74.0000 %
353 10-03-2020 16:00:00 10.35 C 74.0000 %
354 10-03-2020 17:00:00 10.43333 C 74.6667 %
355 10-03-2020 18:00:00 10.5 C 75.0000 %
356 10-03-2020 19:00:00 10.58333 C 75.0000 %
357 10-03-2020 20:00:00 10.65 C 75.0000 %
358 10-03-2020 21:00:00 10.76667 C 75.0000 %
359 10-03-2020 22:00:00 10.8 C 75.8333 %
360 10-03-2020 23:00:00 10.88333 C 76.0000 %
361 11-03-2020 00:00:00 10.98333 C 75.1667 %
362 11-03-2020 01:00:00 11.01667 C 75.0000 %
363 11-03-2020 02:00:00 11.1 C 75.0000 %
364 11-03-2020 03:00:00 11.13333 C 75.1667 %
365 11-03-2020 04:00:00 11.21667 C 76.0000 %
366 11-03-2020 05:00:00 11.25 C 76.0000 %
367 11-03-2020 06:00:00 11.33333 C 76.0000 %
368 11-03-2020 07:00:00 11.4 C 76.0000 %
369 11-03-2020 08:00:00 11.46667 C 76.0000 %
370 11-03-2020 09:00:00 11.5 C 76.0000 %
371 11-03-2020 10:00:00 11.6 C 76.0000 %
372 11-03-2020 11:00:00 11.68333 C 76.0000 %
373 11-03-2020 12:00:00 11.76667 C 76.0000 %
374 11-03-2020 13:00:00 11.85 C 76.6667 %
375 11-03-2020 14:00:00 11.96667 C 76.3333 %
Sensor: Nr:Datum:Temp:Feuchte:
G-T/H 376 11-03-2020 15:00:00 12.05 C 76.0000 %
377 11-03-2020 16:00:00 12.11667 C 76.0000 %
378 11-03-2020 17:00:00 12.18333 C 76.0000 %
379 11-03-2020 18:00:00 12.2 C 76.0000 %
380 11-03-2020 19:00:00 12.21667 C 76.0000 %
381 11-03-2020 20:00:00 12.3 C 76.0000 %
382 11-03-2020 21:00:00 12.3 C 76.0000 %
383 11-03-2020 22:00:00 12.33333 C 76.0000 %
384 11-03-2020 23:00:00 12.33333 C 76.0000 %
385 12-03-2020 00:00:00 12.36667 C 76.0000 %
386 12-03-2020 01:00:00 12.4 C 76.0000 %
387 12-03-2020 02:00:00 12.4 C 76.0000 %
388 12-03-2020 03:00:00 12.4 C 76.0000 %
389 12-03-2020 04:00:00 12.4 C 76.0000 %
390 12-03-2020 05:00:00 12.4 C 76.0000 %
391 12-03-2020 06:00:00 12.4 C 76.0000 %
392 12-03-2020 07:00:00 12.4 C 76.0000 %
393 12-03-2020 08:00:00 12.4 C 76.0000 %
394 12-03-2020 09:00:00 12.4 C 76.0000 %
395 12-03-2020 10:00:00 12.4 C 75.6667 %
396 12-03-2020 11:00:00 12.4 C 74.3333 %
397 12-03-2020 12:00:00 12.36667 C 69.8333 %
398 12-03-2020 13:00:00 12.3 C 67.0000 %
399 12-03-2020 14:00:00 12.3 C 65.5000 %
400 12-03-2020 15:00:00 12.3 C 65.8333 %
Sensor: Nr:Datum:Temp:Feuchte:
G-T/H 401 12-03-2020 16:00:00 12.3 C 67.0000 %
402 12-03-2020 17:00:00 12.28333 C 64.3333 %
403 12-03-2020 18:00:00 12.21667 C 64.8333 %
404 12-03-2020 19:00:00 12.18333 C 67.3333 %
405 12-03-2020 20:00:00 12.1 C 66.6667 %
406 12-03-2020 21:00:00 12.01667 C 66.5000 %
407 12-03-2020 22:00:00 12.03333 C 68.3333 %
408 12-03-2020 23:00:00 11.95 C 68.8333 %
409 13-03-2020 00:00:00 11.81667 C 67.3333 %
410 13-03-2020 01:00:00 11.7 C 66.1667 %
411 13-03-2020 02:00:00 11.55 C 65.6667 %
412 13-03-2020 03:00:00 11.43333 C 65.0000 %
413 13-03-2020 04:00:00 11.33333 C 65.0000 %
414 13-03-2020 05:00:00 11.16667 C 65.0000 %
415 13-03-2020 06:00:00 11.06667 C 65.0000 %
416 13-03-2020 07:00:00 10.96667 C 65.3333 %
417 13-03-2020 08:00:00 10.93333 C 66.5000 %
418 13-03-2020 09:00:00 10.9 C 68.0000 %
419 13-03-2020 10:00:00 10.85 C 68.8333 %
420 13-03-2020 11:00:00 10.83333 C 69.0000 %
421 13-03-2020 12:00:00 10.86667 C 69.5000 %
422 13-03-2020 13:00:00 10.9 C 70.0000 %
423 13-03-2020 14:00:00 10.9 C 70.0000 %
424 13-03-2020 15:00:00 10.95 C 70.0000 %
425 13-03-2020 16:00:00 11 C 69.5000 %
Sensor: Nr:Datum:Temp:Feuchte:
G-T/H 426 13-03-2020 17:00:00 11 C 69.3333 %
427 13-03-2020 18:00:00 11 C 70.0000 %
428 13-03-2020 19:00:00 11 C 70.0000 %
429 13-03-2020 20:00:00 11 C 70.0000 %
430 13-03-2020 21:00:00 10.98333 C 70.1667 %
431 13-03-2020 22:00:00 10.95 C 70.5000 %
432 13-03-2020 23:00:00 10.9 C 71.0000 %
433 14-03-2020 00:00:00 10.86667 C 71.0000 %
434 14-03-2020 01:00:00 10.78333 C 71.0000 %
435 14-03-2020 02:00:00 10.71667 C 71.0000 %
436 14-03-2020 03:00:00 10.66667 C 70.6667 %
437 14-03-2020 04:00:00 10.51667 C 69.8333 %
438 14-03-2020 05:00:00 10.35 C 68.8333 %
439 14-03-2020 06:00:00 10.2 C 68.0000 %
440 14-03-2020 07:00:00 10.1 C 67.6667 %
441 14-03-2020 08:00:00 10 C 67.3333 %
442 14-03-2020 09:00:00 10 C 68.1667 %
443 14-03-2020 10:00:00 9.96667 C 69.3333 %
444 14-03-2020 11:00:00 9.98333 C 70.3333 %
445 14-03-2020 12:00:00 10.1 C 70.0000 %
446 14-03-2020 13:00:00 10.08333 C 70.0000 %
447 14-03-2020 14:00:00 10.16667 C 70.8333 %
448 14-03-2020 15:00:00 10.2 C 71.0000 %
449 14-03-2020 16:00:00 10.3 C 71.0000 %
450 14-03-2020 17:00:00 10.36667 C 71.0000 %
Sensor: Nr:Datum:Temp:Feuchte:
G-T/H 451 14-03-2020 18:00:00 10.4 C 71.0000 %
452 14-03-2020 19:00:00 10.4 C 71.0000 %
453 14-03-2020 20:00:00 10.4 C 71.0000 %
454 14-03-2020 21:00:00 10.4 C 71.0000 %
455 14-03-2020 22:00:00 10.4 C 71.0000 %
456 14-03-2020 23:00:00 10.4 C 71.0000 %
457 15-03-2020 00:00:00 10.4 C 71.0000 %
458 15-03-2020 01:00:00 10.35 C 71.0000 %
459 15-03-2020 02:00:00 10.31667 C 71.0000 %
460 15-03-2020 03:00:00 10.25 C 71.0000 %
461 15-03-2020 04:00:00 10.16667 C 70.5000 %
462 15-03-2020 05:00:00 10.1 C 69.5000 %
463 15-03-2020 06:00:00 10 C 69.0000 %
464 15-03-2020 07:00:00 10 C 69.0000 %
465 15-03-2020 08:00:00 10 C 70.0000 %
466 15-03-2020 09:00:00 9.93333 C 70.8333 %
467 15-03-2020 10:00:00 9.96667 C 71.3333 %
468 15-03-2020 11:00:00 10.13333 C 70.6667 %
469 15-03-2020 12:00:00 10.76667 C 64.8333 %
470 15-03-2020 13:00:00 11.26667 C 59.8333 %
471 15-03-2020 14:00:00 11.7 C 56.5000 %
472 15-03-2020 15:00:00 12.1 C 53.0000 %
473 15-03-2020 16:00:00 12.28333 C 51.1667 %
474 15-03-2020 17:00:00 11.93333 C 55.6667 %
475 15-03-2020 18:00:00 11.73333 C 59.6667 %
Sensor: Nr:Datum:Temp:Feuchte:
G-T/H 476 15-03-2020 19:00:00 11.63333 C 61.6667 %
477 15-03-2020 20:00:00 11.55 C 63.1667 %
478 15-03-2020 21:00:00 11.5 C 64.0000 %
479 15-03-2020 22:00:00 11.45 C 64.6667 %
480 15-03-2020 23:00:00 11.38333 C 65.0000 %
481 16-03-2020 00:00:00 11.25 C 64.5000 %
482 16-03-2020 01:00:00 11.13333 C 64.0000 %
483 16-03-2020 02:00:00 11.03333 C 63.0000 %
484 16-03-2020 03:00:00 10.88333 C 64.0000 %
485 16-03-2020 04:00:00 10.75 C 63.8333 %
486 16-03-2020 05:00:00 10.63333 C 63.0000 %
487 16-03-2020 06:00:00 10.46667 C 63.0000 %
488 16-03-2020 07:00:00 10.35 C 63.0000 %
489 16-03-2020 08:00:00 10.21667 C 63.3333 %
490 16-03-2020 09:00:00 10.2 C 64.5000 %
491 16-03-2020 10:00:00 10.15 C 65.6667 %
492 16-03-2020 11:00:00 10.18333 C 66.5000 %
493 16-03-2020 12:00:00 10.26667 C 67.0000 %
494 16-03-2020 13:00:00 10.38333 C 67.5000 %
495 16-03-2020 14:00:00 10.48333 C 68.0000 %
496 16-03-2020 15:00:00 10.61667 C 68.0000 %
497 16-03-2020 16:00:00 10.75 C 69.0000 %
498 16-03-2020 17:00:00 10.85 C 69.0000 %
499 16-03-2020 18:00:00 10.96667 C 69.0000 %
500 16-03-2020 19:00:00 11 C 69.0000 %
Sensor: Nr:Datum:Temp:Feuchte:
G-T/H 501 16-03-2020 20:00:00 11.1 C 69.0000 %
502 16-03-2020 21:00:00 11.13333 C 69.3333 %
503 16-03-2020 22:00:00 11.2 C 70.0000 %
504 16-03-2020 23:00:00 11.2 C 70.0000 %
505 17-03-2020 00:00:00 11.25 C 70.0000 %
506 17-03-2020 01:00:00 11.26667 C 70.0000 %
507 17-03-2020 02:00:00 11.26667 C 70.0000 %
508 17-03-2020 03:00:00 11.25 C 70.0000 %
509 17-03-2020 04:00:00 11.21667 C 70.0000 %
510 17-03-2020 05:00:00 11.2 C 70.0000 %
511 17-03-2020 06:00:00 11.2 C 70.5000 %
512 17-03-2020 07:00:00 11.2 C 71.0000 %
513 17-03-2020 08:00:00 11.2 C 71.0000 %
514 17-03-2020 09:00:00 11.2 C 71.0000 %
515 17-03-2020 10:00:00 11.28333 C 71.0000 %
516 17-03-2020 11:00:00 11.33333 C 71.0000 %
517 17-03-2020 12:00:00 11.41667 C 71.0000 %
518 17-03-2020 13:00:00 11.48333 C 71.0000 %
519 17-03-2020 14:00:00 11.56667 C 71.0000 %
520 17-03-2020 15:00:00 11.63333 C 71.0000 %
521 17-03-2020 16:00:00 11.71667 C 71.0000 %
522 17-03-2020 17:00:00 11.78333 C 71.0000 %
523 17-03-2020 18:00:00 11.8 C 71.0000 %
524 17-03-2020 19:00:00 11.8 C 71.0000 %
525 17-03-2020 20:00:00 11.85 C 71.0000 %
Sensor: Nr:Datum:Temp:Feuchte:
G-T/H 526 17-03-2020 21:00:00 11.8 C 71.0000 %
527 17-03-2020 22:00:00 11.8 C 71.0000 %
528 17-03-2020 23:00:00 11.8 C 71.0000 %
529 18-03-2020 00:00:00 11.73333 C 71.0000 %
530 18-03-2020 01:00:00 11.71667 C 70.8333 %
531 18-03-2020 02:00:00 11.63333 C 70.0000 %
532 18-03-2020 03:00:00 11.56667 C 70.0000 %
533 18-03-2020 04:00:00 11.46667 C 69.5000 %
534 18-03-2020 05:00:00 11.35 C 68.6667 %
535 18-03-2020 06:00:00 11.21667 C 68.0000 %
536 18-03-2020 07:00:00 11.11667 C 68.0000 %
537 18-03-2020 08:00:00 11.03333 C 68.1667 %
538 18-03-2020 09:00:00 11 C 69.0000 %
539 18-03-2020 10:00:00 11 C 69.5000 %
540 18-03-2020 11:00:00 11 C 70.0000 %
541 18-03-2020 12:00:00 11.06667 C 70.0000 %
542 18-03-2020 13:00:00 11.15 C 70.6667 %
543 18-03-2020 14:00:00 11.25 C 71.0000 %
544 18-03-2020 15:00:00 11.36667 C 71.0000 %
545 18-03-2020 16:00:00 11.46667 C 71.0000 %
546 18-03-2020 17:00:00 11.58333 C 71.0000 %
547 18-03-2020 18:00:00 11.66667 C 71.5000 %
548 18-03-2020 19:00:00 11.7 C 71.5000 %
549 18-03-2020 20:00:00 11.73333 C 72.0000 %
550 18-03-2020 21:00:00 11.8 C 72.0000 %
Sensor: Nr:Datum:Temp:Feuchte:
G-T/H 551 18-03-2020 22:00:00 11.8 C 72.0000 %
552 18-03-2020 23:00:00 11.8 C 72.0000 %
553 19-03-2020 00:00:00 11.83333 C 72.0000 %
554 19-03-2020 01:00:00 11.8 C 72.0000 %
555 19-03-2020 02:00:00 11.8 C 72.0000 %
556 19-03-2020 03:00:00 11.8 C 72.0000 %
557 19-03-2020 04:00:00 11.8 C 71.0000 %
558 19-03-2020 05:00:00 11.8 C 71.0000 %
559 19-03-2020 06:00:00 11.8 C 71.0000 %
560 19-03-2020 07:00:00 11.8 C 71.0000 %
561 19-03-2020 08:00:00 11.8 C 71.0000 %
562 19-03-2020 09:00:00 11.8 C 72.0000 %
563 19-03-2020 10:00:00 11.8 C 72.0000 %
564 19-03-2020 11:00:00 11.88333 C 72.0000 %
565 19-03-2020 12:00:00 11.9 C 72.0000 %
566 19-03-2020 13:00:00 12.01667 C 71.0000 %
567 19-03-2020 14:00:00 12.46667 C 68.8333 %
568 19-03-2020 15:00:00 13.33333 C 61.1667 %
569 19-03-2020 16:00:00 13.71667 C 57.8333 %
570 19-03-2020 17:00:00 13.81667 C 56.1667 %
571 19-03-2020 18:00:00 13.73333 C 58.5000 %
572 19-03-2020 19:00:00 13.03333 C 60.5000 %
573 19-03-2020 20:00:00 12.7 C 61.6667 %
574 19-03-2020 21:00:00 12.78333 C 63.1667 %
575 19-03-2020 22:00:00 12.8 C 64.1667 %
Sensor: Nr:Datum:Temp:Feuchte:
G-T/H 576 19-03-2020 23:00:00 12.8 C 65.0000 %
577 20-03-2020 00:00:00 12.8 C 66.0000 %
578 20-03-2020 01:00:00 12.8 C 66.0000 %
579 20-03-2020 02:00:00 12.78333 C 66.6667 %
580 20-03-2020 03:00:00 12.7 C 67.0000 %
581 20-03-2020 04:00:00 12.68333 C 67.0000 %
582 20-03-2020 05:00:00 12.6 C 67.0000 %
583 20-03-2020 06:00:00 12.5 C 67.0000 %
584 20-03-2020 07:00:00 12.45 C 67.0000 %
585 20-03-2020 08:00:00 12.4 C 67.0000 %
586 20-03-2020 09:00:00 12.38333 C 67.3333 %
587 20-03-2020 10:00:00 12.3 C 68.0000 %
588 20-03-2020 11:00:00 12.3 C 68.0000 %
589 20-03-2020 12:00:00 12.3 C 68.0000 %
590 20-03-2020 13:00:00 12.38333 C 68.6667 %
591 20-03-2020 14:00:00 12.4 C 69.0000 %
592 20-03-2020 15:00:00 12.45 C 69.0000 %
593 20-03-2020 16:00:00 12.5 C 69.0000 %
594 20-03-2020 17:00:00 12.71667 C 68.5000 %
595 20-03-2020 18:00:00 12.61667 C 68.0000 %
596 20-03-2020 19:00:00 12.6 C 68.0000 %
597 20-03-2020 20:00:00 12.6 C 68.0000 %
598 20-03-2020 21:00:00 12.56667 C 68.0000 %
599 20-03-2020 22:00:00 12.5 C 67.0000 %
600 20-03-2020 23:00:00 12.48333 C 66.8333 %
Sensor: Nr:Datum:Temp:Feuchte:
G-T/H 601 21-03-2020 00:00:00 12.43333 C 66.0000 %
602 21-03-2020 01:00:00 12.4 C 66.0000 %
603 21-03-2020 02:00:00 12.3 C 66.0000 %
604 21-03-2020 03:00:00 12.23333 C 66.0000 %
605 21-03-2020 04:00:00 12.15 C 66.0000 %
606 21-03-2020 05:00:00 12 C 65.1667 %
607 21-03-2020 06:00:00 11.91667 C 66.1667 %
608 21-03-2020 07:00:00 11.83333 C 66.5000 %
609 21-03-2020 08:00:00 11.7 C 66.6667 %
610 21-03-2020 09:00:00 11.66667 C 67.0000 %
611 21-03-2020 10:00:00 11.55 C 67.0000 %
612 21-03-2020 11:00:00 11.51667 C 67.0000 %
613 21-03-2020 12:00:00 11.5 C 66.1667 %
614 21-03-2020 13:00:00 11.38333 C 64.1667 %
615 21-03-2020 14:00:00 11.3 C 62.5000 %
616 21-03-2020 15:00:00 11.26667 C 61.3333 %
617 21-03-2020 16:00:00 11.2 C 60.1667 %
618 21-03-2020 17:00:00 11.2 C 60.6667 %
619 21-03-2020 18:00:00 11.13333 C 60.1667 %
620 21-03-2020 19:00:00 11.11667 C 61.0000 %
621 21-03-2020 20:00:00 11.03333 C 60.1667 %
622 21-03-2020 21:00:00 11 C 60.5000 %
623 21-03-2020 22:00:00 10.83333 C 61.1667 %
624 21-03-2020 23:00:00 10.75 C 60.3333 %
625 22-03-2020 00:00:00 10.58333 C 60.0000 %
Sensor: Nr:Datum:Temp:Feuchte:
G-T/H 626 22-03-2020 01:00:00 10.43333 C 59.0000 %
627 22-03-2020 02:00:00 10.28333 C 58.3333 %
628 22-03-2020 03:00:00 10.13333 C 58.0000 %
629 22-03-2020 04:00:00 10.01667 C 58.3333 %
630 22-03-2020 05:00:00 9.91667 C 60.0000 %
631 22-03-2020 06:00:00 9.81667 C 61.0000 %
632 22-03-2020 07:00:00 9.71667 C 61.0000 %
633 22-03-2020 08:00:00 9.6 C 61.0000 %
634 22-03-2020 09:00:00 9.5 C 61.3333 %
635 22-03-2020 10:00:00 9.4 C 61.3333 %
636 22-03-2020 11:00:00 9.33333 C 61.0000 %
637 22-03-2020 12:00:00 9.31667 C 61.0000 %
638 22-03-2020 13:00:00 9.3 C 61.0000 %
639 22-03-2020 14:00:00 9.3 C 61.0000 %
640 22-03-2020 15:00:00 9.38333 C 61.1667 %
641 22-03-2020 16:00:00 9.43333 C 62.0000 %
642 22-03-2020 17:00:00 9.48333 C 62.0000 %
643 22-03-2020 18:00:00 9.5 C 62.3333 %
644 22-03-2020 19:00:00 9.5 C 63.0000 %
645 22-03-2020 20:00:00 9.5 C 63.8333 %
646 22-03-2020 21:00:00 9.5 C 64.0000 %
647 22-03-2020 22:00:00 9.5 C 64.0000 %
648 22-03-2020 23:00:00 9.41667 C 63.8333 %
649 23-03-2020 00:00:00 9.36667 C 63.0000 %
650 23-03-2020 01:00:00 9.26667 C 63.0000 %
Sensor: Nr:Datum:Temp:Feuchte:
G-T/H 651 23-03-2020 02:00:00 9.16667 C 63.0000 %
652 23-03-2020 03:00:00 9.08333 C 62.8333 %
653 23-03-2020 04:00:00 8.98333 C 62.1667 %
654 23-03-2020 05:00:00 8.86667 C 63.0000 %
655 23-03-2020 06:00:00 8.75 C 63.0000 %
656 23-03-2020 07:00:00 8.61667 C 62.0000 %
657 23-03-2020 08:00:00 8.51667 C 62.0000 %
658 23-03-2020 09:00:00 8.45 C 62.0000 %
659 23-03-2020 10:00:00 8.4 C 62.0000 %
660 23-03-2020 11:00:00 8.4 C 62.0000 %
661 23-03-2020 12:00:00 8.4 C 62.0000 %
662 23-03-2020 13:00:00 8.4 C 62.0000 %
663 23-03-2020 14:00:00 8.4 C 62.3333 %
664 23-03-2020 15:00:00 8.45 C 63.0000 %
665 23-03-2020 16:00:00 8.51667 C 63.0000 %
666 23-03-2020 17:00:00 8.56667 C 63.0000 %
667 23-03-2020 18:00:00 8.6 C 63.8333 %
668 23-03-2020 19:00:00 8.6 C 64.0000 %
669 23-03-2020 20:00:00 8.6 C 64.0000 %
670 23-03-2020 21:00:00 8.6 C 64.0000 %
671 23-03-2020 22:00:00 8.6 C 64.0000 %
672 23-03-2020 23:00:00 8.58333 C 64.0000 %
673 24-03-2020 00:00:00 8.5 C 64.0000 %
674 24-03-2020 01:00:00 8.43333 C 64.0000 %
675 24-03-2020 02:00:00 8.36667 C 63.1667 %
Sensor: Nr:Datum:Temp:Feuchte:
G-T/H 676 24-03-2020 03:00:00 8.26667 C 63.0000 %
677 24-03-2020 04:00:00 8.15 C 63.0000 %
678 24-03-2020 05:00:00 8.06667 C 63.0000 %
679 24-03-2020 06:00:00 7.96667 C 62.6667 %
680 24-03-2020 07:00:00 7.88333 C 63.0000 %
681 24-03-2020 08:00:00 7.8 C 63.0000 %
682 24-03-2020 09:00:00 7.8 C 63.0000 %
683 24-03-2020 10:00:00 7.75 C 64.0000 %
684 24-03-2020 11:00:00 7.71667 C 64.0000 %
685 24-03-2020 12:00:00 7.75 C 64.0000 %
686 24-03-2020 13:00:00 7.8 C 64.3333 %
687 24-03-2020 14:00:00 7.83333 C 64.5000 %
688 24-03-2020 15:00:00 7.88333 C 64.0000 %
689 24-03-2020 16:00:00 7.9 C 64.0000 %
690 24-03-2020 17:00:00 8.01667 C 63.5000 %
691 24-03-2020 18:00:00 8.11667 C 64.3333 %
692 24-03-2020 19:00:00 8.16667 C 65.0000 %
693 24-03-2020 20:00:00 8.2 C 65.0000 %
694 24-03-2020 21:00:00 8.2 C 65.0000 %
695 24-03-2020 22:00:00 8.2 C 65.0000 %
696 24-03-2020 23:00:00 8.2 C 64.1667 %

Maximal/Minimal-Werte vom 25.02.2020 - 24.03.2020

Sensor Min Max Avg
Temp
(Aussen-T/F)
-4.7 °C
24-03-2020  06:00:17
25.8 °C
19-03-2020  13:19:18
7.3 °C
Feuchte
(Aussen-T/F)
20 %
25-02-2020  14:18:17
50 %
14-03-2020  05:39:18
35.18 %
Temp
(G-T/H)
7.7 °C
24-03-2020  10:30:17
13.9 °C
19-03-2020  16:59:17
10.25 °C
Feuchte
(G-T/H)
51 %
15-03-2020  16:09:17
77 %
11-03-2020  13:29:17
70.58 %

Die Daten stammen von einer Davis Vantage Pro 2 Wetter-Station und werden unter Linux mit der Software wview2wettercgi und aufbereitet. Alle Angaben erfolgen ohne Gewähr für ihre Vollständigkeit oder Richtigkeit.
Kontakt: Rainer Krienke krienke@uni-koblenz.de . Meine Webseiten an der Uni Koblenz oder privat.
Version: $Revision: 0.78 $